<?xml version="1.0" encoding="UTF-8" standalone="no" ?>
<gpx xmlns="http://www.topografix.com/GPX/1/1" xmlns:xsi="http://www.w3.org/2001/XMLSchema-instance" xsi:schemaLocation="http://www.topografix.com/GPX/1/1 http://www.topografix.com/GPX/1/1/gpx.xsd" version="1.1" creator="VisuGPX - https://www.visugpx.com">
  <metadata>
    <name>Tour du lac de la Cavayère</name>
    <desc><![CDATA[Tour du lac de la Cavayère prés de Carcassonne]]></desc>
  </metadata>
  <trk>
    <name><![CDATA[Lac De Cavayere]]></name>
    <desc><![CDATA[]]></desc>
    <trkseg>
      <trkpt lat="43.18297" lon="2.41471">
        <ele>164.9</ele>
        <time>2015-12-16T14:10:00.289Z</time>
      </trkpt>
      <trkpt lat="43.18297" lon="2.41471">
        <ele>164.9</ele>
        <time>2015-12-16T14:10:03.446Z</time>
      </trkpt>
      <trkpt lat="43.18298" lon="2.41468">
        <ele>164.7</ele>
        <time>2015-12-16T14:10:04.379Z</time>
      </trkpt>
      <trkpt lat="43.18297" lon="2.41468">
        <ele>164.7</ele>
        <time>2015-12-16T14:10:05.819Z</time>
      </trkpt>
      <trkpt lat="43.18297" lon="2.41469">
        <ele>164.7</ele>
        <time>2015-12-16T14:10:06.693Z</time>
      </trkpt>
      <trkpt lat="43.18288" lon="2.41468">
        <ele>164.1</ele>
        <time>2015-12-16T14:10:47.737Z</time>
      </trkpt>
      <trkpt lat="43.18288" lon="2.41468">
        <ele>164</ele>
        <time>2015-12-16T14:10:48.697Z</time>
      </trkpt>
      <trkpt lat="43.18279" lon="2.41471">
        <ele>163</ele>
        <time>2015-12-16T14:10:57.734Z</time>
      </trkpt>
      <trkpt lat="43.18278" lon="2.41471">
        <ele>162.9</ele>
        <time>2015-12-16T14:10:58.697Z</time>
      </trkpt>
      <trkpt lat="43.18271" lon="2.41478">
        <ele>162.5</ele>
        <time>2015-12-16T14:11:04.770Z</time>
      </trkpt>
      <trkpt lat="43.1827" lon="2.41479">
        <ele>162.4</ele>
        <time>2015-12-16T14:11:05.705Z</time>
      </trkpt>
      <trkpt lat="43.18265" lon="2.41487">
        <ele>162.3</ele>
        <time>2015-12-16T14:11:10.784Z</time>
      </trkpt>
      <trkpt lat="43.18264" lon="2.41489">
        <ele>162.3</ele>
        <time>2015-12-16T14:11:11.720Z</time>
      </trkpt>
      <trkpt lat="43.18256" lon="2.41495">
        <ele>162.2</ele>
        <time>2015-12-16T14:11:17.743Z</time>
      </trkpt>
      <trkpt lat="43.18255" lon="2.41497">
        <ele>162.2</ele>
        <time>2015-12-16T14:11:18.716Z</time>
      </trkpt>
      <trkpt lat="43.18249" lon="2.41505">
        <ele>162.7</ele>
        <time>2015-12-16T14:11:25.722Z</time>
      </trkpt>
      <trkpt lat="43.18248" lon="2.41506">
        <ele>162.7</ele>
        <time>2015-12-16T14:11:26.697Z</time>
      </trkpt>
      <trkpt lat="43.18242" lon="2.41513">
        <ele>163.2</ele>
        <time>2015-12-16T14:11:32.748Z</time>
      </trkpt>
      <trkpt lat="43.18241" lon="2.41514">
        <ele>163.2</ele>
        <time>2015-12-16T14:11:33.704Z</time>
      </trkpt>
      <trkpt lat="43.18236" lon="2.41522">
        <ele>163.3</ele>
        <time>2015-12-16T14:11:39.767Z</time>
      </trkpt>
      <trkpt lat="43.18235" lon="2.41524">
        <ele>163.2</ele>
        <time>2015-12-16T14:11:40.715Z</time>
      </trkpt>
      <trkpt lat="43.18232" lon="2.41536">
        <ele>163.1</ele>
        <time>2015-12-16T14:11:46.739Z</time>
      </trkpt>
      <trkpt lat="43.18232" lon="2.41538">
        <ele>163</ele>
        <time>2015-12-16T14:11:47.701Z</time>
      </trkpt>
      <trkpt lat="43.18232" lon="2.41548">
        <ele>161.8</ele>
        <time>2015-12-16T14:11:53.727Z</time>
      </trkpt>
      <trkpt lat="43.18232" lon="2.4155">
        <ele>161.7</ele>
        <time>2015-12-16T14:11:54.693Z</time>
      </trkpt>
      <trkpt lat="43.18234" lon="2.41562">
        <ele>160.9</ele>
        <time>2015-12-16T14:12:00.764Z</time>
      </trkpt>
      <trkpt lat="43.18235" lon="2.41563">
        <ele>160.8</ele>
        <time>2015-12-16T14:12:01.718Z</time>
      </trkpt>
      <trkpt lat="43.18237" lon="2.41574">
        <ele>160.5</ele>
        <time>2015-12-16T14:12:07.774Z</time>
      </trkpt>
      <trkpt lat="43.18238" lon="2.41576">
        <ele>160.5</ele>
        <time>2015-12-16T14:12:08.695Z</time>
      </trkpt>
      <trkpt lat="43.1824" lon="2.41587">
        <ele>159.9</ele>
        <time>2015-12-16T14:12:14.726Z</time>
      </trkpt>
      <trkpt lat="43.1824" lon="2.41589">
        <ele>159.8</ele>
        <time>2015-12-16T14:12:15.696Z</time>
      </trkpt>
      <trkpt lat="43.18242" lon="2.41599">
        <ele>158.9</ele>
        <time>2015-12-16T14:12:21.739Z</time>
      </trkpt>
      <trkpt lat="43.18242" lon="2.41601">
        <ele>158.9</ele>
        <time>2015-12-16T14:12:22.702Z</time>
      </trkpt>
      <trkpt lat="43.18242" lon="2.41613">
        <ele>157.8</ele>
        <time>2015-12-16T14:12:28.745Z</time>
      </trkpt>
      <trkpt lat="43.18242" lon="2.41615">
        <ele>157.7</ele>
        <time>2015-12-16T14:12:29.699Z</time>
      </trkpt>
      <trkpt lat="43.1824" lon="2.41626">
        <ele>156.1</ele>
        <time>2015-12-16T14:12:36.765Z</time>
      </trkpt>
      <trkpt lat="43.1824" lon="2.41627">
        <ele>155.9</ele>
        <time>2015-12-16T14:12:37.707Z</time>
      </trkpt>
      <trkpt lat="43.18235" lon="2.41637">
        <ele>154.2</ele>
        <time>2015-12-16T14:12:44.740Z</time>
      </trkpt>
      <trkpt lat="43.18234" lon="2.41638">
        <ele>154</ele>
        <time>2015-12-16T14:12:45.709Z</time>
      </trkpt>
      <trkpt lat="43.18225" lon="2.41642">
        <ele>153.1</ele>
        <time>2015-12-16T14:12:53.734Z</time>
      </trkpt>
      <trkpt lat="43.18224" lon="2.41642">
        <ele>153</ele>
        <time>2015-12-16T14:12:54.687Z</time>
      </trkpt>
      <trkpt lat="43.18216" lon="2.41638">
        <ele>152.6</ele>
        <time>2015-12-16T14:13:01.750Z</time>
      </trkpt>
      <trkpt lat="43.18215" lon="2.41637">
        <ele>152.6</ele>
        <time>2015-12-16T14:13:02.699Z</time>
      </trkpt>
      <trkpt lat="43.18208" lon="2.41631">
        <ele>152.1</ele>
        <time>2015-12-16T14:13:09.769Z</time>
      </trkpt>
      <trkpt lat="43.18207" lon="2.41629">
        <ele>152</ele>
        <time>2015-12-16T14:13:10.695Z</time>
      </trkpt>
      <trkpt lat="43.18201" lon="2.41621">
        <ele>151.7</ele>
        <time>2015-12-16T14:13:16.850Z</time>
      </trkpt>
      <trkpt lat="43.182" lon="2.41619">
        <ele>151.6</ele>
        <time>2015-12-16T14:13:17.699Z</time>
      </trkpt>
      <trkpt lat="43.18195" lon="2.41611">
        <ele>151.5</ele>
        <time>2015-12-16T14:13:22.735Z</time>
      </trkpt>
      <trkpt lat="43.18194" lon="2.4161">
        <ele>151.4</ele>
        <time>2015-12-16T14:13:23.699Z</time>
      </trkpt>
      <trkpt lat="43.18188" lon="2.41601">
        <ele>151</ele>
        <time>2015-12-16T14:13:33.740Z</time>
      </trkpt>
      <trkpt lat="43.18188" lon="2.416">
        <ele>151</ele>
        <time>2015-12-16T14:13:34.699Z</time>
      </trkpt>
      <trkpt lat="43.18184" lon="2.41591">
        <ele>150.5</ele>
        <time>2015-12-16T14:13:43.751Z</time>
      </trkpt>
      <trkpt lat="43.18183" lon="2.41589">
        <ele>150.4</ele>
        <time>2015-12-16T14:13:44.702Z</time>
      </trkpt>
      <trkpt lat="43.18178" lon="2.41579">
        <ele>150.1</ele>
        <time>2015-12-16T14:13:51.736Z</time>
      </trkpt>
      <trkpt lat="43.18177" lon="2.41578">
        <ele>150.1</ele>
        <time>2015-12-16T14:13:52.699Z</time>
      </trkpt>
      <trkpt lat="43.18172" lon="2.4157">
        <ele>149.5</ele>
        <time>2015-12-16T14:13:56.784Z</time>
      </trkpt>
      <trkpt lat="43.1817" lon="2.41568">
        <ele>149.2</ele>
        <time>2015-12-16T14:13:57.712Z</time>
      </trkpt>
      <trkpt lat="43.18164" lon="2.41559">
        <ele>148.3</ele>
        <time>2015-12-16T14:14:02.782Z</time>
      </trkpt>
      <trkpt lat="43.18163" lon="2.41558">
        <ele>148.2</ele>
        <time>2015-12-16T14:14:03.716Z</time>
      </trkpt>
      <trkpt lat="43.18155" lon="2.41552">
        <ele>147.1</ele>
        <time>2015-12-16T14:14:08.779Z</time>
      </trkpt>
      <trkpt lat="43.18154" lon="2.41552">
        <ele>147.1</ele>
        <time>2015-12-16T14:14:09.695Z</time>
      </trkpt>
      <trkpt lat="43.18145" lon="2.41553">
        <ele>146.6</ele>
        <time>2015-12-16T14:14:15.739Z</time>
      </trkpt>
      <trkpt lat="43.18143" lon="2.41553">
        <ele>146.5</ele>
        <time>2015-12-16T14:14:16.702Z</time>
      </trkpt>
      <trkpt lat="43.18136" lon="2.41557">
        <ele>145.6</ele>
        <time>2015-12-16T14:14:22.762Z</time>
      </trkpt>
      <trkpt lat="43.18134" lon="2.41558">
        <ele>145.4</ele>
        <time>2015-12-16T14:14:23.711Z</time>
      </trkpt>
      <trkpt lat="43.18127" lon="2.41563">
        <ele>144.6</ele>
        <time>2015-12-16T14:14:29.741Z</time>
      </trkpt>
      <trkpt lat="43.18125" lon="2.41564">
        <ele>144.4</ele>
        <time>2015-12-16T14:14:30.704Z</time>
      </trkpt>
      <trkpt lat="43.18119" lon="2.41569">
        <ele>143.4</ele>
        <time>2015-12-16T14:14:36.734Z</time>
      </trkpt>
      <trkpt lat="43.18118" lon="2.41571">
        <ele>143.3</ele>
        <time>2015-12-16T14:14:37.701Z</time>
      </trkpt>
      <trkpt lat="43.18112" lon="2.41577">
        <ele>142.5</ele>
        <time>2015-12-16T14:14:43.768Z</time>
      </trkpt>
      <trkpt lat="43.1811" lon="2.41579">
        <ele>142.3</ele>
        <time>2015-12-16T14:14:44.708Z</time>
      </trkpt>
      <trkpt lat="43.18105" lon="2.41586">
        <ele>141.9</ele>
        <time>2015-12-16T14:14:50.792Z</time>
      </trkpt>
      <trkpt lat="43.18104" lon="2.41587">
        <ele>141.8</ele>
        <time>2015-12-16T14:14:51.715Z</time>
      </trkpt>
      <trkpt lat="43.18097" lon="2.41594">
        <ele>141.4</ele>
        <time>2015-12-16T14:14:58.762Z</time>
      </trkpt>
      <trkpt lat="43.18095" lon="2.41595">
        <ele>141.5</ele>
        <time>2015-12-16T14:14:59.688Z</time>
      </trkpt>
      <trkpt lat="43.18088" lon="2.41598">
        <ele>141.6</ele>
        <time>2015-12-16T14:15:05.784Z</time>
      </trkpt>
      <trkpt lat="43.18086" lon="2.41599">
        <ele>141.6</ele>
        <time>2015-12-16T14:15:06.717Z</time>
      </trkpt>
      <trkpt lat="43.18079" lon="2.41603">
        <ele>141.8</ele>
        <time>2015-12-16T14:15:13.757Z</time>
      </trkpt>
      <trkpt lat="43.18078" lon="2.41603">
        <ele>141.8</ele>
        <time>2015-12-16T14:15:14.699Z</time>
      </trkpt>
      <trkpt lat="43.1807" lon="2.41607">
        <ele>141.7</ele>
        <time>2015-12-16T14:15:20.739Z</time>
      </trkpt>
      <trkpt lat="43.18068" lon="2.41607">
        <ele>141.7</ele>
        <time>2015-12-16T14:15:21.710Z</time>
      </trkpt>
      <trkpt lat="43.18061" lon="2.41611">
        <ele>141.2</ele>
        <time>2015-12-16T14:15:27.759Z</time>
      </trkpt>
      <trkpt lat="43.18059" lon="2.41611">
        <ele>141.1</ele>
        <time>2015-12-16T14:15:28.698Z</time>
      </trkpt>
      <trkpt lat="43.18052" lon="2.41613">
        <ele>140.4</ele>
        <time>2015-12-16T14:15:33.768Z</time>
      </trkpt>
      <trkpt lat="43.1805" lon="2.41613">
        <ele>140.3</ele>
        <time>2015-12-16T14:15:34.711Z</time>
      </trkpt>
      <trkpt lat="43.18043" lon="2.41621">
        <ele>139.9</ele>
        <time>2015-12-16T14:15:40.762Z</time>
      </trkpt>
      <trkpt lat="43.18042" lon="2.41622">
        <ele>139.7</ele>
        <time>2015-12-16T14:15:41.718Z</time>
      </trkpt>
      <trkpt lat="43.18034" lon="2.41628">
        <ele>139.1</ele>
        <time>2015-12-16T14:15:48.774Z</time>
      </trkpt>
      <trkpt lat="43.18033" lon="2.41629">
        <ele>139.1</ele>
        <time>2015-12-16T14:15:49.690Z</time>
      </trkpt>
      <trkpt lat="43.18026" lon="2.41634">
        <ele>139.4</ele>
        <time>2015-12-16T14:15:54.841Z</time>
      </trkpt>
      <trkpt lat="43.18025" lon="2.41635">
        <ele>139.5</ele>
        <time>2015-12-16T14:15:55.771Z</time>
      </trkpt>
      <trkpt lat="43.18017" lon="2.41641">
        <ele>140</ele>
        <time>2015-12-16T14:16:01.754Z</time>
      </trkpt>
      <trkpt lat="43.18016" lon="2.41642">
        <ele>140</ele>
        <time>2015-12-16T14:16:02.699Z</time>
      </trkpt>
      <trkpt lat="43.1801" lon="2.41649">
        <ele>140.3</ele>
        <time>2015-12-16T14:16:08.741Z</time>
      </trkpt>
      <trkpt lat="43.18008" lon="2.4165">
        <ele>140.2</ele>
        <time>2015-12-16T14:16:09.702Z</time>
      </trkpt>
      <trkpt lat="43.18003" lon="2.41658">
        <ele>140.3</ele>
        <time>2015-12-16T14:16:15.769Z</time>
      </trkpt>
      <trkpt lat="43.18002" lon="2.4166">
        <ele>140.4</ele>
        <time>2015-12-16T14:16:16.699Z</time>
      </trkpt>
      <trkpt lat="43.17997" lon="2.4167">
        <ele>140.4</ele>
        <time>2015-12-16T14:16:22.746Z</time>
      </trkpt>
      <trkpt lat="43.17996" lon="2.41671">
        <ele>140.3</ele>
        <time>2015-12-16T14:16:23.701Z</time>
      </trkpt>
      <trkpt lat="43.17992" lon="2.41681">
        <ele>140.4</ele>
        <time>2015-12-16T14:16:30.740Z</time>
      </trkpt>
      <trkpt lat="43.17991" lon="2.41683">
        <ele>140.6</ele>
        <time>2015-12-16T14:16:31.697Z</time>
      </trkpt>
      <trkpt lat="43.17987" lon="2.41692">
        <ele>140.8</ele>
        <time>2015-12-16T14:16:37.745Z</time>
      </trkpt>
      <trkpt lat="43.17986" lon="2.41693">
        <ele>140.8</ele>
        <time>2015-12-16T14:16:38.701Z</time>
      </trkpt>
      <trkpt lat="43.17981" lon="2.41702">
        <ele>140.9</ele>
        <time>2015-12-16T14:16:44.746Z</time>
      </trkpt>
      <trkpt lat="43.1798" lon="2.41704">
        <ele>141.1</ele>
        <time>2015-12-16T14:16:45.697Z</time>
      </trkpt>
      <trkpt lat="43.17976" lon="2.41713">
        <ele>141.6</ele>
        <time>2015-12-16T14:16:50.777Z</time>
      </trkpt>
      <trkpt lat="43.17975" lon="2.41714">
        <ele>141.6</ele>
        <time>2015-12-16T14:16:51.716Z</time>
      </trkpt>
      <trkpt lat="43.17971" lon="2.41724">
        <ele>141.3</ele>
        <time>2015-12-16T14:16:57.776Z</time>
      </trkpt>
      <trkpt lat="43.1797" lon="2.41725">
        <ele>141.4</ele>
        <time>2015-12-16T14:16:59.014Z</time>
      </trkpt>
      <trkpt lat="43.17966" lon="2.41734">
        <ele>141.4</ele>
        <time>2015-12-16T14:17:04.739Z</time>
      </trkpt>
      <trkpt lat="43.17965" lon="2.41736">
        <ele>141.3</ele>
        <time>2015-12-16T14:17:05.700Z</time>
      </trkpt>
      <trkpt lat="43.1796" lon="2.41745">
        <ele>141.4</ele>
        <time>2015-12-16T14:17:12.802Z</time>
      </trkpt>
      <trkpt lat="43.1796" lon="2.41747">
        <ele>141.4</ele>
        <time>2015-12-16T14:17:13.718Z</time>
      </trkpt>
      <trkpt lat="43.17955" lon="2.41756">
        <ele>141.9</ele>
        <time>2015-12-16T14:17:19.746Z</time>
      </trkpt>
      <trkpt lat="43.17954" lon="2.41757">
        <ele>142.1</ele>
        <time>2015-12-16T14:17:20.698Z</time>
      </trkpt>
      <trkpt lat="43.17948" lon="2.41765">
        <ele>142.4</ele>
        <time>2015-12-16T14:17:25.751Z</time>
      </trkpt>
      <trkpt lat="43.17947" lon="2.41766">
        <ele>142.5</ele>
        <time>2015-12-16T14:17:26.697Z</time>
      </trkpt>
      <trkpt lat="43.1794" lon="2.41772">
        <ele>141.9</ele>
        <time>2015-12-16T14:17:33.795Z</time>
      </trkpt>
      <trkpt lat="43.17939" lon="2.41773">
        <ele>142</ele>
        <time>2015-12-16T14:17:34.698Z</time>
      </trkpt>
      <trkpt lat="43.17931" lon="2.41777">
        <ele>141.9</ele>
        <time>2015-12-16T14:17:40.756Z</time>
      </trkpt>
      <trkpt lat="43.17929" lon="2.41777">
        <ele>142</ele>
        <time>2015-12-16T14:17:41.698Z</time>
      </trkpt>
      <trkpt lat="43.17921" lon="2.41781">
        <ele>141.7</ele>
        <time>2015-12-16T14:17:48.229Z</time>
      </trkpt>
      <trkpt lat="43.1792" lon="2.41782">
        <ele>141.6</ele>
        <time>2015-12-16T14:17:48.688Z</time>
      </trkpt>
      <trkpt lat="43.17911" lon="2.4178">
        <ele>141.3</ele>
        <time>2015-12-16T14:17:55.785Z</time>
      </trkpt>
      <trkpt lat="43.1791" lon="2.4178">
        <ele>141.2</ele>
        <time>2015-12-16T14:17:56.712Z</time>
      </trkpt>
      <trkpt lat="43.17902" lon="2.41777">
        <ele>140.7</ele>
        <time>2015-12-16T14:18:05.731Z</time>
      </trkpt>
      <trkpt lat="43.17901" lon="2.41777">
        <ele>140.8</ele>
        <time>2015-12-16T14:18:06.698Z</time>
      </trkpt>
      <trkpt lat="43.17893" lon="2.41774">
        <ele>141.1</ele>
        <time>2015-12-16T14:18:14.726Z</time>
      </trkpt>
      <trkpt lat="43.17892" lon="2.41773">
        <ele>141.2</ele>
        <time>2015-12-16T14:18:15.701Z</time>
      </trkpt>
      <trkpt lat="43.17884" lon="2.41774">
        <ele>141.2</ele>
        <time>2015-12-16T14:18:22.742Z</time>
      </trkpt>
      <trkpt lat="43.17882" lon="2.41774">
        <ele>141.1</ele>
        <time>2015-12-16T14:18:23.712Z</time>
      </trkpt>
      <trkpt lat="43.17874" lon="2.41776">
        <ele>140.9</ele>
        <time>2015-12-16T14:18:28.762Z</time>
      </trkpt>
      <trkpt lat="43.17873" lon="2.41776">
        <ele>140.8</ele>
        <time>2015-12-16T14:18:29.706Z</time>
      </trkpt>
      <trkpt lat="43.17866" lon="2.41777">
        <ele>140.7</ele>
        <time>2015-12-16T14:18:34.728Z</time>
      </trkpt>
      <trkpt lat="43.17863" lon="2.41777">
        <ele>140.5</ele>
        <time>2015-12-16T14:18:35.701Z</time>
      </trkpt>
      <trkpt lat="43.17855" lon="2.4178">
        <ele>140</ele>
        <time>2015-12-16T14:18:40.721Z</time>
      </trkpt>
      <trkpt lat="43.17853" lon="2.4178">
        <ele>139.9</ele>
        <time>2015-12-16T14:18:41.716Z</time>
      </trkpt>
      <trkpt lat="43.17845" lon="2.41781">
        <ele>139.6</ele>
        <time>2015-12-16T14:18:46.762Z</time>
      </trkpt>
      <trkpt lat="43.17843" lon="2.41781">
        <ele>139.5</ele>
        <time>2015-12-16T14:18:47.700Z</time>
      </trkpt>
      <trkpt lat="43.17835" lon="2.4178">
        <ele>139</ele>
        <time>2015-12-16T14:18:52.770Z</time>
      </trkpt>
      <trkpt lat="43.17834" lon="2.4178">
        <ele>138.9</ele>
        <time>2015-12-16T14:18:53.688Z</time>
      </trkpt>
      <trkpt lat="43.17826" lon="2.41786">
        <ele>138.2</ele>
        <time>2015-12-16T14:19:02.731Z</time>
      </trkpt>
      <trkpt lat="43.17826" lon="2.41787">
        <ele>138.2</ele>
        <time>2015-12-16T14:19:03.695Z</time>
      </trkpt>
      <trkpt lat="43.17825" lon="2.41798">
        <ele>137.4</ele>
        <time>2015-12-16T14:19:11.746Z</time>
      </trkpt>
      <trkpt lat="43.17826" lon="2.418">
        <ele>137.2</ele>
        <time>2015-12-16T14:19:12.699Z</time>
      </trkpt>
      <trkpt lat="43.17828" lon="2.41811">
        <ele>135.8</ele>
        <time>2015-12-16T14:19:18.742Z</time>
      </trkpt>
      <trkpt lat="43.17828" lon="2.41813">
        <ele>135.7</ele>
        <time>2015-12-16T14:19:19.702Z</time>
      </trkpt>
      <trkpt lat="43.1783" lon="2.41825">
        <ele>133.7</ele>
        <time>2015-12-16T14:19:26.769Z</time>
      </trkpt>
      <trkpt lat="43.1783" lon="2.41826">
        <ele>133.4</ele>
        <time>2015-12-16T14:19:27.701Z</time>
      </trkpt>
      <trkpt lat="43.17835" lon="2.41834">
        <ele>131.8</ele>
        <time>2015-12-16T14:19:32.766Z</time>
      </trkpt>
      <trkpt lat="43.17836" lon="2.41836">
        <ele>131.6</ele>
        <time>2015-12-16T14:19:33.706Z</time>
      </trkpt>
      <trkpt lat="43.17842" lon="2.41845">
        <ele>130.5</ele>
        <time>2015-12-16T14:19:40.740Z</time>
      </trkpt>
      <trkpt lat="43.17843" lon="2.41847">
        <ele>130.3</ele>
        <time>2015-12-16T14:19:41.688Z</time>
      </trkpt>
      <trkpt lat="43.17848" lon="2.41855">
        <ele>129</ele>
        <time>2015-12-16T14:19:47.734Z</time>
      </trkpt>
      <trkpt lat="43.17849" lon="2.41857">
        <ele>128.8</ele>
        <time>2015-12-16T14:19:48.701Z</time>
      </trkpt>
      <trkpt lat="43.17855" lon="2.41864">
        <ele>128.2</ele>
        <time>2015-12-16T14:19:54.762Z</time>
      </trkpt>
      <trkpt lat="43.17856" lon="2.41866">
        <ele>128.1</ele>
        <time>2015-12-16T14:19:55.738Z</time>
      </trkpt>
      <trkpt lat="43.17862" lon="2.41871">
        <ele>127.7</ele>
        <time>2015-12-16T14:20:01.773Z</time>
      </trkpt>
      <trkpt lat="43.17864" lon="2.41872">
        <ele>127.7</ele>
        <time>2015-12-16T14:20:02.713Z</time>
      </trkpt>
      <trkpt lat="43.17872" lon="2.41877">
        <ele>126.6</ele>
        <time>2015-12-16T14:20:09.729Z</time>
      </trkpt>
      <trkpt lat="43.17873" lon="2.41877">
        <ele>126.5</ele>
        <time>2015-12-16T14:20:10.694Z</time>
      </trkpt>
      <trkpt lat="43.17881" lon="2.41878">
        <ele>126.2</ele>
        <time>2015-12-16T14:20:17.731Z</time>
      </trkpt>
      <trkpt lat="43.17883" lon="2.41878">
        <ele>126.1</ele>
        <time>2015-12-16T14:20:18.711Z</time>
      </trkpt>
      <trkpt lat="43.17891" lon="2.41879">
        <ele>125.4</ele>
        <time>2015-12-16T14:20:24.730Z</time>
      </trkpt>
      <trkpt lat="43.17892" lon="2.41879">
        <ele>125.5</ele>
        <time>2015-12-16T14:20:25.707Z</time>
      </trkpt>
      <trkpt lat="43.179" lon="2.41878">
        <ele>125.5</ele>
        <time>2015-12-16T14:20:32.764Z</time>
      </trkpt>
      <trkpt lat="43.17901" lon="2.41878">
        <ele>125.6</ele>
        <time>2015-12-16T14:20:33.723Z</time>
      </trkpt>
      <trkpt lat="43.1791" lon="2.41876">
        <ele>124.8</ele>
        <time>2015-12-16T14:20:39.767Z</time>
      </trkpt>
      <trkpt lat="43.17911" lon="2.41875">
        <ele>124.7</ele>
        <time>2015-12-16T14:20:40.709Z</time>
      </trkpt>
      <trkpt lat="43.17919" lon="2.41872">
        <ele>124.3</ele>
        <time>2015-12-16T14:20:45.770Z</time>
      </trkpt>
      <trkpt lat="43.1792" lon="2.41872">
        <ele>124.2</ele>
        <time>2015-12-16T14:20:46.718Z</time>
      </trkpt>
      <trkpt lat="43.17928" lon="2.41867">
        <ele>123.7</ele>
        <time>2015-12-16T14:20:52.764Z</time>
      </trkpt>
      <trkpt lat="43.17929" lon="2.41866">
        <ele>123.6</ele>
        <time>2015-12-16T14:20:53.741Z</time>
      </trkpt>
      <trkpt lat="43.17936" lon="2.4186">
        <ele>123</ele>
        <time>2015-12-16T14:21:00.762Z</time>
      </trkpt>
      <trkpt lat="43.17937" lon="2.41859">
        <ele>122.9</ele>
        <time>2015-12-16T14:21:01.718Z</time>
      </trkpt>
      <trkpt lat="43.17944" lon="2.41854">
        <ele>122.1</ele>
        <time>2015-12-16T14:21:08.759Z</time>
      </trkpt>
      <trkpt lat="43.17946" lon="2.41853">
        <ele>122</ele>
        <time>2015-12-16T14:21:09.697Z</time>
      </trkpt>
      <trkpt lat="43.17953" lon="2.41847">
        <ele>121.3</ele>
        <time>2015-12-16T14:21:15.733Z</time>
      </trkpt>
      <trkpt lat="43.17954" lon="2.41846">
        <ele>121.3</ele>
        <time>2015-12-16T14:21:16.698Z</time>
      </trkpt>
      <trkpt lat="43.17962" lon="2.41842">
        <ele>121.2</ele>
        <time>2015-12-16T14:21:22.779Z</time>
      </trkpt>
      <trkpt lat="43.17963" lon="2.41841">
        <ele>121.3</ele>
        <time>2015-12-16T14:21:23.715Z</time>
      </trkpt>
      <trkpt lat="43.17971" lon="2.41835">
        <ele>120.9</ele>
        <time>2015-12-16T14:21:29.731Z</time>
      </trkpt>
      <trkpt lat="43.17972" lon="2.41835">
        <ele>121</ele>
        <time>2015-12-16T14:21:30.688Z</time>
      </trkpt>
      <trkpt lat="43.17979" lon="2.4183">
        <ele>120.4</ele>
        <time>2015-12-16T14:21:37.735Z</time>
      </trkpt>
      <trkpt lat="43.1798" lon="2.41829">
        <ele>120.3</ele>
        <time>2015-12-16T14:21:38.701Z</time>
      </trkpt>
      <trkpt lat="43.17987" lon="2.41823">
        <ele>119.6</ele>
        <time>2015-12-16T14:21:44.763Z</time>
      </trkpt>
      <trkpt lat="43.17988" lon="2.41822">
        <ele>119.6</ele>
        <time>2015-12-16T14:21:45.717Z</time>
      </trkpt>
      <trkpt lat="43.17995" lon="2.41817">
        <ele>119.3</ele>
        <time>2015-12-16T14:21:52.775Z</time>
      </trkpt>
      <trkpt lat="43.17996" lon="2.41816">
        <ele>119.2</ele>
        <time>2015-12-16T14:21:53.711Z</time>
      </trkpt>
      <trkpt lat="43.18004" lon="2.41811">
        <ele>118.8</ele>
        <time>2015-12-16T14:21:58.763Z</time>
      </trkpt>
      <trkpt lat="43.18005" lon="2.4181">
        <ele>118.7</ele>
        <time>2015-12-16T14:21:59.706Z</time>
      </trkpt>
      <trkpt lat="43.18014" lon="2.41805">
        <ele>117.9</ele>
        <time>2015-12-16T14:22:05.778Z</time>
      </trkpt>
      <trkpt lat="43.18015" lon="2.41803">
        <ele>117.7</ele>
        <time>2015-12-16T14:22:06.708Z</time>
      </trkpt>
      <trkpt lat="43.18023" lon="2.41799">
        <ele>117</ele>
        <time>2015-12-16T14:22:12.718Z</time>
      </trkpt>
      <trkpt lat="43.18024" lon="2.41797">
        <ele>116.9</ele>
        <time>2015-12-16T14:22:13.696Z</time>
      </trkpt>
      <trkpt lat="43.18028" lon="2.41788">
        <ele>115.8</ele>
        <time>2015-12-16T14:22:19.809Z</time>
      </trkpt>
      <trkpt lat="43.18029" lon="2.41786">
        <ele>115.6</ele>
        <time>2015-12-16T14:22:20.699Z</time>
      </trkpt>
      <trkpt lat="43.18034" lon="2.41779">
        <ele>115</ele>
        <time>2015-12-16T14:22:26.762Z</time>
      </trkpt>
      <trkpt lat="43.18035" lon="2.41777">
        <ele>114.9</ele>
        <time>2015-12-16T14:22:27.715Z</time>
      </trkpt>
      <trkpt lat="43.18041" lon="2.41769">
        <ele>114.1</ele>
        <time>2015-12-16T14:22:33.723Z</time>
      </trkpt>
      <trkpt lat="43.18043" lon="2.41768">
        <ele>114.1</ele>
        <time>2015-12-16T14:22:34.699Z</time>
      </trkpt>
      <trkpt lat="43.18049" lon="2.4176">
        <ele>113.4</ele>
        <time>2015-12-16T14:22:40.731Z</time>
      </trkpt>
      <trkpt lat="43.18049" lon="2.4176">
        <ele>113.3</ele>
        <time>2015-12-16T14:22:41.700Z</time>
      </trkpt>
      <trkpt lat="43.18057" lon="2.41753">
        <ele>111.8</ele>
        <time>2015-12-16T14:22:48.725Z</time>
      </trkpt>
      <trkpt lat="43.18058" lon="2.41753">
        <ele>111.8</ele>
        <time>2015-12-16T14:22:49.701Z</time>
      </trkpt>
      <trkpt lat="43.18065" lon="2.41748">
        <ele>113.4</ele>
        <time>2015-12-16T14:22:55.760Z</time>
      </trkpt>
      <trkpt lat="43.18066" lon="2.41747">
        <ele>113.6</ele>
        <time>2015-12-16T14:22:56.694Z</time>
      </trkpt>
      <trkpt lat="43.18075" lon="2.41748">
        <ele>121</ele>
        <time>2015-12-16T14:23:07.780Z</time>
      </trkpt>
      <trkpt lat="43.18076" lon="2.41749">
        <ele>121.9</ele>
        <time>2015-12-16T14:23:08.709Z</time>
      </trkpt>
      <trkpt lat="43.18083" lon="2.41756">
        <ele>123.8</ele>
        <time>2015-12-16T14:23:17.772Z</time>
      </trkpt>
      <trkpt lat="43.18084" lon="2.41756">
        <ele>123.7</ele>
        <time>2015-12-16T14:23:18.715Z</time>
      </trkpt>
      <trkpt lat="43.1809" lon="2.41765">
        <ele>124</ele>
        <time>2015-12-16T14:23:25.815Z</time>
      </trkpt>
      <trkpt lat="43.18092" lon="2.41766">
        <ele>124.1</ele>
        <time>2015-12-16T14:23:26.709Z</time>
      </trkpt>
      <trkpt lat="43.18098" lon="2.41771">
        <ele>124.5</ele>
        <time>2015-12-16T14:23:34.732Z</time>
      </trkpt>
      <trkpt lat="43.181" lon="2.41772">
        <ele>124.5</ele>
        <time>2015-12-16T14:23:35.710Z</time>
      </trkpt>
      <trkpt lat="43.18106" lon="2.41778">
        <ele>124.8</ele>
        <time>2015-12-16T14:23:43.778Z</time>
      </trkpt>
      <trkpt lat="43.18107" lon="2.41779">
        <ele>125</ele>
        <time>2015-12-16T14:23:44.707Z</time>
      </trkpt>
      <trkpt lat="43.18113" lon="2.41786">
        <ele>125.6</ele>
        <time>2015-12-16T14:23:51.202Z</time>
      </trkpt>
      <trkpt lat="43.18115" lon="2.41787">
        <ele>125.5</ele>
        <time>2015-12-16T14:23:51.703Z</time>
      </trkpt>
      <trkpt lat="43.18121" lon="2.41792">
        <ele>125.1</ele>
        <time>2015-12-16T14:23:55.789Z</time>
      </trkpt>
      <trkpt lat="43.18124" lon="2.41793">
        <ele>125</ele>
        <time>2015-12-16T14:23:56.710Z</time>
      </trkpt>
      <trkpt lat="43.1813" lon="2.418">
        <ele>124.7</ele>
        <time>2015-12-16T14:24:01.745Z</time>
      </trkpt>
      <trkpt lat="43.18131" lon="2.41801">
        <ele>124.7</ele>
        <time>2015-12-16T14:24:02.687Z</time>
      </trkpt>
      <trkpt lat="43.18137" lon="2.41809">
        <ele>124</ele>
        <time>2015-12-16T14:24:08.732Z</time>
      </trkpt>
      <trkpt lat="43.18138" lon="2.4181">
        <ele>123.9</ele>
        <time>2015-12-16T14:24:09.695Z</time>
      </trkpt>
      <trkpt lat="43.18144" lon="2.41818">
        <ele>122.8</ele>
        <time>2015-12-16T14:24:16.718Z</time>
      </trkpt>
      <trkpt lat="43.18145" lon="2.41819">
        <ele>122.5</ele>
        <time>2015-12-16T14:24:17.692Z</time>
      </trkpt>
      <trkpt lat="43.18147" lon="2.4183">
        <ele>121.3</ele>
        <time>2015-12-16T14:24:35.754Z</time>
      </trkpt>
      <trkpt lat="43.18148" lon="2.41831">
        <ele>121.2</ele>
        <time>2015-12-16T14:24:36.693Z</time>
      </trkpt>
      <trkpt lat="43.18154" lon="2.41839">
        <ele>120.1</ele>
        <time>2015-12-16T14:24:44.746Z</time>
      </trkpt>
      <trkpt lat="43.18155" lon="2.4184">
        <ele>120</ele>
        <time>2015-12-16T14:24:45.696Z</time>
      </trkpt>
      <trkpt lat="43.18156" lon="2.41852">
        <ele>118.7</ele>
        <time>2015-12-16T14:24:53.735Z</time>
      </trkpt>
      <trkpt lat="43.18156" lon="2.41855">
        <ele>118.6</ele>
        <time>2015-12-16T14:24:54.701Z</time>
      </trkpt>
      <trkpt lat="43.18156" lon="2.41866">
        <ele>118.1</ele>
        <time>2015-12-16T14:25:01.764Z</time>
      </trkpt>
      <trkpt lat="43.18156" lon="2.41867">
        <ele>117.9</ele>
        <time>2015-12-16T14:25:02.698Z</time>
      </trkpt>
      <trkpt lat="43.18154" lon="2.41878">
        <ele>117</ele>
        <time>2015-12-16T14:25:10.734Z</time>
      </trkpt>
      <trkpt lat="43.18154" lon="2.4188">
        <ele>116.9</ele>
        <time>2015-12-16T14:25:11.704Z</time>
      </trkpt>
      <trkpt lat="43.18151" lon="2.41891">
        <ele>116.5</ele>
        <time>2015-12-16T14:25:19.778Z</time>
      </trkpt>
      <trkpt lat="43.18151" lon="2.41893">
        <ele>116.4</ele>
        <time>2015-12-16T14:25:20.700Z</time>
      </trkpt>
      <trkpt lat="43.18149" lon="2.41904">
        <ele>116.5</ele>
        <time>2015-12-16T14:25:28.339Z</time>
      </trkpt>
      <trkpt lat="43.18149" lon="2.41906">
        <ele>116.5</ele>
        <time>2015-12-16T14:25:28.698Z</time>
      </trkpt>
      <trkpt lat="43.18147" lon="2.41916">
        <ele>116.1</ele>
        <time>2015-12-16T14:25:35.735Z</time>
      </trkpt>
      <trkpt lat="43.18146" lon="2.41918">
        <ele>116</ele>
        <time>2015-12-16T14:25:36.699Z</time>
      </trkpt>
      <trkpt lat="43.18143" lon="2.41929">
        <ele>115.2</ele>
        <time>2015-12-16T14:25:42.730Z</time>
      </trkpt>
      <trkpt lat="43.18143" lon="2.41931">
        <ele>115</ele>
        <time>2015-12-16T14:25:43.712Z</time>
      </trkpt>
      <trkpt lat="43.18141" lon="2.41943">
        <ele>114.4</ele>
        <time>2015-12-16T14:25:50.725Z</time>
      </trkpt>
      <trkpt lat="43.18142" lon="2.41945">
        <ele>114.6</ele>
        <time>2015-12-16T14:25:51.703Z</time>
      </trkpt>
      <trkpt lat="43.18138" lon="2.41956">
        <ele>115.1</ele>
        <time>2015-12-16T14:25:58.773Z</time>
      </trkpt>
      <trkpt lat="43.18137" lon="2.41959">
        <ele>115.1</ele>
        <time>2015-12-16T14:25:59.718Z</time>
      </trkpt>
      <trkpt lat="43.18135" lon="2.41971">
        <ele>114.4</ele>
        <time>2015-12-16T14:26:04.761Z</time>
      </trkpt>
      <trkpt lat="43.18135" lon="2.41973">
        <ele>114.4</ele>
        <time>2015-12-16T14:26:05.719Z</time>
      </trkpt>
      <trkpt lat="43.18133" lon="2.41984">
        <ele>113.5</ele>
        <time>2015-12-16T14:26:11.767Z</time>
      </trkpt>
      <trkpt lat="43.18133" lon="2.41986">
        <ele>113.4</ele>
        <time>2015-12-16T14:26:12.711Z</time>
      </trkpt>
      <trkpt lat="43.1813" lon="2.41997">
        <ele>112.9</ele>
        <time>2015-12-16T14:26:18.731Z</time>
      </trkpt>
      <trkpt lat="43.18129" lon="2.41999">
        <ele>112.7</ele>
        <time>2015-12-16T14:26:19.702Z</time>
      </trkpt>
      <trkpt lat="43.18128" lon="2.42009">
        <ele>113.1</ele>
        <time>2015-12-16T14:26:26.760Z</time>
      </trkpt>
      <trkpt lat="43.18128" lon="2.42011">
        <ele>113.1</ele>
        <time>2015-12-16T14:26:27.720Z</time>
      </trkpt>
      <trkpt lat="43.18128" lon="2.42022">
        <ele>113</ele>
        <time>2015-12-16T14:26:35.745Z</time>
      </trkpt>
      <trkpt lat="43.18128" lon="2.42024">
        <ele>113</ele>
        <time>2015-12-16T14:26:36.699Z</time>
      </trkpt>
      <trkpt lat="43.18128" lon="2.42034">
        <ele>112.8</ele>
        <time>2015-12-16T14:26:42.772Z</time>
      </trkpt>
      <trkpt lat="43.18128" lon="2.42037">
        <ele>112.8</ele>
        <time>2015-12-16T14:26:43.721Z</time>
      </trkpt>
      <trkpt lat="43.1813" lon="2.42047">
        <ele>113.1</ele>
        <time>2015-12-16T14:26:52.729Z</time>
      </trkpt>
      <trkpt lat="43.1813" lon="2.4205">
        <ele>113.3</ele>
        <time>2015-12-16T14:26:53.715Z</time>
      </trkpt>
      <trkpt lat="43.18133" lon="2.4206">
        <ele>113.4</ele>
        <time>2015-12-16T14:27:00.729Z</time>
      </trkpt>
      <trkpt lat="43.18133" lon="2.42061">
        <ele>113.3</ele>
        <time>2015-12-16T14:27:01.707Z</time>
      </trkpt>
      <trkpt lat="43.18137" lon="2.42071">
        <ele>114.6</ele>
        <time>2015-12-16T14:27:07.221Z</time>
      </trkpt>
      <trkpt lat="43.18137" lon="2.42072">
        <ele>114.6</ele>
        <time>2015-12-16T14:27:07.705Z</time>
      </trkpt>
      <trkpt lat="43.18137" lon="2.42084">
        <ele>115.5</ele>
        <time>2015-12-16T14:27:13.740Z</time>
      </trkpt>
      <trkpt lat="43.18138" lon="2.42086">
        <ele>115.6</ele>
        <time>2015-12-16T14:27:14.699Z</time>
      </trkpt>
      <trkpt lat="43.18143" lon="2.42094">
        <ele>116.5</ele>
        <time>2015-12-16T14:27:22.804Z</time>
      </trkpt>
      <trkpt lat="43.18144" lon="2.42095">
        <ele>116.6</ele>
        <time>2015-12-16T14:27:23.714Z</time>
      </trkpt>
      <trkpt lat="43.18152" lon="2.421">
        <ele>117.1</ele>
        <time>2015-12-16T14:27:33.780Z</time>
      </trkpt>
      <trkpt lat="43.18152" lon="2.421">
        <ele>117.1</ele>
        <time>2015-12-16T14:27:34.710Z</time>
      </trkpt>
      <trkpt lat="43.1816" lon="2.42103">
        <ele>117.6</ele>
        <time>2015-12-16T14:27:43.804Z</time>
      </trkpt>
      <trkpt lat="43.18162" lon="2.42103">
        <ele>117.7</ele>
        <time>2015-12-16T14:27:44.717Z</time>
      </trkpt>
      <trkpt lat="43.18169" lon="2.421">
        <ele>118.6</ele>
        <time>2015-12-16T14:27:50.727Z</time>
      </trkpt>
      <trkpt lat="43.1817" lon="2.421">
        <ele>118.7</ele>
        <time>2015-12-16T14:27:51.698Z</time>
      </trkpt>
      <trkpt lat="43.18179" lon="2.42096">
        <ele>119.9</ele>
        <time>2015-12-16T14:27:58.726Z</time>
      </trkpt>
      <trkpt lat="43.1818" lon="2.42095">
        <ele>120</ele>
        <time>2015-12-16T14:27:59.699Z</time>
      </trkpt>
      <trkpt lat="43.18189" lon="2.42093">
        <ele>120.8</ele>
        <time>2015-12-16T14:28:06.733Z</time>
      </trkpt>
      <trkpt lat="43.18191" lon="2.42093">
        <ele>121.3</ele>
        <time>2015-12-16T14:28:07.700Z</time>
      </trkpt>
      <trkpt lat="43.18199" lon="2.42094">
        <ele>121.2</ele>
        <time>2015-12-16T14:28:13.739Z</time>
      </trkpt>
      <trkpt lat="43.18201" lon="2.42094">
        <ele>121.2</ele>
        <time>2015-12-16T14:28:14.696Z</time>
      </trkpt>
      <trkpt lat="43.18209" lon="2.42093">
        <ele>120.5</ele>
        <time>2015-12-16T14:28:23.756Z</time>
      </trkpt>
      <trkpt lat="43.1821" lon="2.42093">
        <ele>120.4</ele>
        <time>2015-12-16T14:28:24.695Z</time>
      </trkpt>
      <trkpt lat="43.18216" lon="2.42086">
        <ele>120</ele>
        <time>2015-12-16T14:28:41.716Z</time>
      </trkpt>
      <trkpt lat="43.18218" lon="2.42087">
        <ele>119.6</ele>
        <time>2015-12-16T14:28:42.694Z</time>
      </trkpt>
      <trkpt lat="43.18222" lon="2.42098">
        <ele>119.3</ele>
        <time>2015-12-16T14:28:53.789Z</time>
      </trkpt>
      <trkpt lat="43.18223" lon="2.42099">
        <ele>119.2</ele>
        <time>2015-12-16T14:28:54.715Z</time>
      </trkpt>
      <trkpt lat="43.18222" lon="2.4211">
        <ele>119.1</ele>
        <time>2015-12-16T14:29:00.723Z</time>
      </trkpt>
      <trkpt lat="43.18222" lon="2.42112">
        <ele>119</ele>
        <time>2015-12-16T14:29:01.696Z</time>
      </trkpt>
      <trkpt lat="43.18222" lon="2.42123">
        <ele>119.7</ele>
        <time>2015-12-16T14:29:06.749Z</time>
      </trkpt>
      <trkpt lat="43.18221" lon="2.42125">
        <ele>119.9</ele>
        <time>2015-12-16T14:29:07.702Z</time>
      </trkpt>
      <trkpt lat="43.18218" lon="2.42135">
        <ele>121.2</ele>
        <time>2015-12-16T14:29:13.722Z</time>
      </trkpt>
      <trkpt lat="43.18217" lon="2.42137">
        <ele>121.5</ele>
        <time>2015-12-16T14:29:14.695Z</time>
      </trkpt>
      <trkpt lat="43.18213" lon="2.42147">
        <ele>123.5</ele>
        <time>2015-12-16T14:29:20.733Z</time>
      </trkpt>
      <trkpt lat="43.18212" lon="2.42149">
        <ele>123.8</ele>
        <time>2015-12-16T14:29:21.699Z</time>
      </trkpt>
      <trkpt lat="43.18209" lon="2.42159">
        <ele>125.6</ele>
        <time>2015-12-16T14:29:27.759Z</time>
      </trkpt>
      <trkpt lat="43.18209" lon="2.42161">
        <ele>125.6</ele>
        <time>2015-12-16T14:29:28.716Z</time>
      </trkpt>
      <trkpt lat="43.18211" lon="2.42173">
        <ele>127.7</ele>
        <time>2015-12-16T14:29:35.802Z</time>
      </trkpt>
      <trkpt lat="43.18211" lon="2.42176">
        <ele>128.2</ele>
        <time>2015-12-16T14:29:36.719Z</time>
      </trkpt>
      <trkpt lat="43.18215" lon="2.42186">
        <ele>130</ele>
        <time>2015-12-16T14:29:42.780Z</time>
      </trkpt>
      <trkpt lat="43.18216" lon="2.42187">
        <ele>130.3</ele>
        <time>2015-12-16T14:29:43.717Z</time>
      </trkpt>
      <trkpt lat="43.1822" lon="2.42197">
        <ele>131.4</ele>
        <time>2015-12-16T14:29:50.728Z</time>
      </trkpt>
      <trkpt lat="43.18221" lon="2.42198">
        <ele>131.5</ele>
        <time>2015-12-16T14:29:51.701Z</time>
      </trkpt>
      <trkpt lat="43.18223" lon="2.42208">
        <ele>131.8</ele>
        <time>2015-12-16T14:29:57.774Z</time>
      </trkpt>
      <trkpt lat="43.18224" lon="2.4221">
        <ele>132.1</ele>
        <time>2015-12-16T14:29:58.737Z</time>
      </trkpt>
      <trkpt lat="43.18229" lon="2.4222">
        <ele>133.3</ele>
        <time>2015-12-16T14:30:04.727Z</time>
      </trkpt>
      <trkpt lat="43.18229" lon="2.42221">
        <ele>133.3</ele>
        <time>2015-12-16T14:30:05.701Z</time>
      </trkpt>
      <trkpt lat="43.18224" lon="2.4223">
        <ele>133.5</ele>
        <time>2015-12-16T14:30:13.772Z</time>
      </trkpt>
      <trkpt lat="43.18223" lon="2.4223">
        <ele>133.5</ele>
        <time>2015-12-16T14:30:14.710Z</time>
      </trkpt>
      <trkpt lat="43.18217" lon="2.42237">
        <ele>133.8</ele>
        <time>2015-12-16T14:30:21.725Z</time>
      </trkpt>
      <trkpt lat="43.18216" lon="2.42239">
        <ele>133.8</ele>
        <time>2015-12-16T14:30:22.687Z</time>
      </trkpt>
      <trkpt lat="43.1821" lon="2.42248">
        <ele>134.1</ele>
        <time>2015-12-16T14:30:28.734Z</time>
      </trkpt>
      <trkpt lat="43.18209" lon="2.42249">
        <ele>134.1</ele>
        <time>2015-12-16T14:30:29.698Z</time>
      </trkpt>
      <trkpt lat="43.18203" lon="2.42258">
        <ele>134.2</ele>
        <time>2015-12-16T14:30:35.804Z</time>
      </trkpt>
      <trkpt lat="43.18202" lon="2.42259">
        <ele>134.1</ele>
        <time>2015-12-16T14:30:36.715Z</time>
      </trkpt>
      <trkpt lat="43.18197" lon="2.42268">
        <ele>134</ele>
        <time>2015-12-16T14:30:43.780Z</time>
      </trkpt>
      <trkpt lat="43.18196" lon="2.42269">
        <ele>134</ele>
        <time>2015-12-16T14:30:44.726Z</time>
      </trkpt>
      <trkpt lat="43.18192" lon="2.42278">
        <ele>133.6</ele>
        <time>2015-12-16T14:30:50.797Z</time>
      </trkpt>
      <trkpt lat="43.18191" lon="2.4228">
        <ele>133.6</ele>
        <time>2015-12-16T14:30:51.702Z</time>
      </trkpt>
      <trkpt lat="43.18186" lon="2.42288">
        <ele>133.6</ele>
        <time>2015-12-16T14:30:57.766Z</time>
      </trkpt>
      <trkpt lat="43.18186" lon="2.4229">
        <ele>133.8</ele>
        <time>2015-12-16T14:30:58.721Z</time>
      </trkpt>
      <trkpt lat="43.18182" lon="2.42301">
        <ele>134.3</ele>
        <time>2015-12-16T14:31:05.789Z</time>
      </trkpt>
      <trkpt lat="43.18181" lon="2.42302">
        <ele>134.5</ele>
        <time>2015-12-16T14:31:06.795Z</time>
      </trkpt>
      <trkpt lat="43.18178" lon="2.42312">
        <ele>135.5</ele>
        <time>2015-12-16T14:31:12.735Z</time>
      </trkpt>
      <trkpt lat="43.18177" lon="2.42313">
        <ele>135.6</ele>
        <time>2015-12-16T14:31:13.703Z</time>
      </trkpt>
      <trkpt lat="43.18172" lon="2.42323">
        <ele>136.2</ele>
        <time>2015-12-16T14:31:21.782Z</time>
      </trkpt>
      <trkpt lat="43.18171" lon="2.42324">
        <ele>136.3</ele>
        <time>2015-12-16T14:31:22.717Z</time>
      </trkpt>
      <trkpt lat="43.18166" lon="2.42334">
        <ele>136.3</ele>
        <time>2015-12-16T14:31:28.732Z</time>
      </trkpt>
      <trkpt lat="43.18165" lon="2.42336">
        <ele>136.3</ele>
        <time>2015-12-16T14:31:29.701Z</time>
      </trkpt>
      <trkpt lat="43.1816" lon="2.42345">
        <ele>136.3</ele>
        <time>2015-12-16T14:31:34.770Z</time>
      </trkpt>
      <trkpt lat="43.1816" lon="2.42346">
        <ele>136.3</ele>
        <time>2015-12-16T14:31:35.719Z</time>
      </trkpt>
      <trkpt lat="43.18155" lon="2.42356">
        <ele>136.1</ele>
        <time>2015-12-16T14:31:41.732Z</time>
      </trkpt>
      <trkpt lat="43.18154" lon="2.42357">
        <ele>136.1</ele>
        <time>2015-12-16T14:31:42.708Z</time>
      </trkpt>
      <trkpt lat="43.18152" lon="2.42367">
        <ele>136.4</ele>
        <time>2015-12-16T14:31:47.761Z</time>
      </trkpt>
      <trkpt lat="43.18151" lon="2.42369">
        <ele>136.3</ele>
        <time>2015-12-16T14:31:48.702Z</time>
      </trkpt>
      <trkpt lat="43.18149" lon="2.42379">
        <ele>136</ele>
        <time>2015-12-16T14:31:53.768Z</time>
      </trkpt>
      <trkpt lat="43.18149" lon="2.42381">
        <ele>136</ele>
        <time>2015-12-16T14:31:54.714Z</time>
      </trkpt>
      <trkpt lat="43.1815" lon="2.42392">
        <ele>135.5</ele>
        <time>2015-12-16T14:31:59.761Z</time>
      </trkpt>
      <trkpt lat="43.1815" lon="2.42394">
        <ele>135.5</ele>
        <time>2015-12-16T14:32:00.701Z</time>
      </trkpt>
      <trkpt lat="43.18151" lon="2.42406">
        <ele>135.2</ele>
        <time>2015-12-16T14:32:06.736Z</time>
      </trkpt>
      <trkpt lat="43.18152" lon="2.42408">
        <ele>135.1</ele>
        <time>2015-12-16T14:32:07.696Z</time>
      </trkpt>
      <trkpt lat="43.18157" lon="2.42417">
        <ele>133.7</ele>
        <time>2015-12-16T14:32:13.723Z</time>
      </trkpt>
      <trkpt lat="43.18157" lon="2.42419">
        <ele>133.3</ele>
        <time>2015-12-16T14:32:14.699Z</time>
      </trkpt>
      <trkpt lat="43.18165" lon="2.42422">
        <ele>130.8</ele>
        <time>2015-12-16T14:32:19.724Z</time>
      </trkpt>
      <trkpt lat="43.18166" lon="2.42421">
        <ele>130</ele>
        <time>2015-12-16T14:32:20.699Z</time>
      </trkpt>
      <trkpt lat="43.18174" lon="2.42416">
        <ele>126.7</ele>
        <time>2015-12-16T14:32:27.763Z</time>
      </trkpt>
      <trkpt lat="43.18176" lon="2.42416">
        <ele>126.5</ele>
        <time>2015-12-16T14:32:28.710Z</time>
      </trkpt>
      <trkpt lat="43.18184" lon="2.42413">
        <ele>125.3</ele>
        <time>2015-12-16T14:32:35.767Z</time>
      </trkpt>
      <trkpt lat="43.18185" lon="2.42412">
        <ele>125.3</ele>
        <time>2015-12-16T14:32:36.703Z</time>
      </trkpt>
      <trkpt lat="43.18193" lon="2.42408">
        <ele>125.8</ele>
        <time>2015-12-16T14:32:43.766Z</time>
      </trkpt>
      <trkpt lat="43.18194" lon="2.42407">
        <ele>125.9</ele>
        <time>2015-12-16T14:32:44.717Z</time>
      </trkpt>
      <trkpt lat="43.18202" lon="2.42402">
        <ele>126.8</ele>
        <time>2015-12-16T14:32:49.734Z</time>
      </trkpt>
      <trkpt lat="43.18203" lon="2.42401">
        <ele>127</ele>
        <time>2015-12-16T14:32:50.700Z</time>
      </trkpt>
      <trkpt lat="43.18209" lon="2.42393">
        <ele>128.1</ele>
        <time>2015-12-16T14:32:56.732Z</time>
      </trkpt>
      <trkpt lat="43.1821" lon="2.42392">
        <ele>128.4</ele>
        <time>2015-12-16T14:32:57.697Z</time>
      </trkpt>
      <trkpt lat="43.18217" lon="2.42386">
        <ele>129.8</ele>
        <time>2015-12-16T14:33:03.779Z</time>
      </trkpt>
      <trkpt lat="43.18218" lon="2.42385">
        <ele>130</ele>
        <time>2015-12-16T14:33:04.713Z</time>
      </trkpt>
      <trkpt lat="43.18225" lon="2.42377">
        <ele>130.9</ele>
        <time>2015-12-16T14:33:11.747Z</time>
      </trkpt>
      <trkpt lat="43.18226" lon="2.42376">
        <ele>131.1</ele>
        <time>2015-12-16T14:33:12.701Z</time>
      </trkpt>
      <trkpt lat="43.18233" lon="2.42371">
        <ele>132.7</ele>
        <time>2015-12-16T14:33:20.739Z</time>
      </trkpt>
      <trkpt lat="43.18234" lon="2.42371">
        <ele>133</ele>
        <time>2015-12-16T14:33:21.700Z</time>
      </trkpt>
      <trkpt lat="43.18242" lon="2.42365">
        <ele>135.4</ele>
        <time>2015-12-16T14:33:30.766Z</time>
      </trkpt>
      <trkpt lat="43.18243" lon="2.42365">
        <ele>135.6</ele>
        <time>2015-12-16T14:33:31.722Z</time>
      </trkpt>
      <trkpt lat="43.18251" lon="2.42361">
        <ele>137</ele>
        <time>2015-12-16T14:33:40.736Z</time>
      </trkpt>
      <trkpt lat="43.18252" lon="2.42361">
        <ele>137.2</ele>
        <time>2015-12-16T14:33:41.710Z</time>
      </trkpt>
      <trkpt lat="43.18259" lon="2.42356">
        <ele>139</ele>
        <time>2015-12-16T14:33:49.761Z</time>
      </trkpt>
      <trkpt lat="43.1826" lon="2.42356">
        <ele>139.3</ele>
        <time>2015-12-16T14:33:50.703Z</time>
      </trkpt>
      <trkpt lat="43.18265" lon="2.42347">
        <ele>140.6</ele>
        <time>2015-12-16T14:33:58.739Z</time>
      </trkpt>
      <trkpt lat="43.18266" lon="2.42345">
        <ele>140.9</ele>
        <time>2015-12-16T14:33:59.698Z</time>
      </trkpt>
      <trkpt lat="43.18273" lon="2.42337">
        <ele>142.6</ele>
        <time>2015-12-16T14:34:07.742Z</time>
      </trkpt>
      <trkpt lat="43.18274" lon="2.42336">
        <ele>142.8</ele>
        <time>2015-12-16T14:34:08.702Z</time>
      </trkpt>
      <trkpt lat="43.18277" lon="2.42326">
        <ele>143.9</ele>
        <time>2015-12-16T14:34:14.765Z</time>
      </trkpt>
      <trkpt lat="43.18278" lon="2.42325">
        <ele>144.1</ele>
        <time>2015-12-16T14:34:15.701Z</time>
      </trkpt>
      <trkpt lat="43.18282" lon="2.42316">
        <ele>145.1</ele>
        <time>2015-12-16T14:34:21.781Z</time>
      </trkpt>
      <trkpt lat="43.18284" lon="2.42315">
        <ele>145.3</ele>
        <time>2015-12-16T14:34:22.708Z</time>
      </trkpt>
      <trkpt lat="43.18288" lon="2.42305">
        <ele>146.4</ele>
        <time>2015-12-16T14:34:29.725Z</time>
      </trkpt>
      <trkpt lat="43.18289" lon="2.42302">
        <ele>146.4</ele>
        <time>2015-12-16T14:34:30.718Z</time>
      </trkpt>
      <trkpt lat="43.18292" lon="2.42292">
        <ele>146.6</ele>
        <time>2015-12-16T14:34:36.727Z</time>
      </trkpt>
      <trkpt lat="43.18294" lon="2.42291">
        <ele>146.6</ele>
        <time>2015-12-16T14:34:37.701Z</time>
      </trkpt>
      <trkpt lat="43.18299" lon="2.42285">
        <ele>146.4</ele>
        <time>2015-12-16T14:34:41.893Z</time>
      </trkpt>
      <trkpt lat="43.18301" lon="2.42285">
        <ele>146.3</ele>
        <time>2015-12-16T14:34:42.701Z</time>
      </trkpt>
      <trkpt lat="43.18309" lon="2.42279">
        <ele>146</ele>
        <time>2015-12-16T14:34:47.738Z</time>
      </trkpt>
      <trkpt lat="43.1831" lon="2.42278">
        <ele>146.1</ele>
        <time>2015-12-16T14:34:48.695Z</time>
      </trkpt>
      <trkpt lat="43.18315" lon="2.42269">
        <ele>146.3</ele>
        <time>2015-12-16T14:34:55.748Z</time>
      </trkpt>
      <trkpt lat="43.18316" lon="2.42268">
        <ele>146.4</ele>
        <time>2015-12-16T14:34:56.696Z</time>
      </trkpt>
      <trkpt lat="43.18319" lon="2.42258">
        <ele>146.6</ele>
        <time>2015-12-16T14:35:02.759Z</time>
      </trkpt>
      <trkpt lat="43.1832" lon="2.42257">
        <ele>146.6</ele>
        <time>2015-12-16T14:35:03.735Z</time>
      </trkpt>
      <trkpt lat="43.18326" lon="2.42248">
        <ele>146.5</ele>
        <time>2015-12-16T14:35:09.724Z</time>
      </trkpt>
      <trkpt lat="43.18327" lon="2.42246">
        <ele>146.4</ele>
        <time>2015-12-16T14:35:10.695Z</time>
      </trkpt>
      <trkpt lat="43.18331" lon="2.42235">
        <ele>145.5</ele>
        <time>2015-12-16T14:35:15.725Z</time>
      </trkpt>
      <trkpt lat="43.18331" lon="2.42234">
        <ele>145.3</ele>
        <time>2015-12-16T14:35:16.699Z</time>
      </trkpt>
      <trkpt lat="43.18335" lon="2.42223">
        <ele>143.9</ele>
        <time>2015-12-16T14:35:22.769Z</time>
      </trkpt>
      <trkpt lat="43.18336" lon="2.42222">
        <ele>143.8</ele>
        <time>2015-12-16T14:35:23.709Z</time>
      </trkpt>
      <trkpt lat="43.18339" lon="2.42211">
        <ele>143.2</ele>
        <time>2015-12-16T14:35:29.782Z</time>
      </trkpt>
      <trkpt lat="43.1834" lon="2.4221">
        <ele>143.1</ele>
        <time>2015-12-16T14:35:30.717Z</time>
      </trkpt>
      <trkpt lat="43.18344" lon="2.422">
        <ele>141.7</ele>
        <time>2015-12-16T14:35:36.725Z</time>
      </trkpt>
      <trkpt lat="43.18345" lon="2.42199">
        <ele>141.6</ele>
        <time>2015-12-16T14:35:37.697Z</time>
      </trkpt>
      <trkpt lat="43.1835" lon="2.42191">
        <ele>139.8</ele>
        <time>2015-12-16T14:35:44.772Z</time>
      </trkpt>
      <trkpt lat="43.18351" lon="2.4219">
        <ele>139.8</ele>
        <time>2015-12-16T14:35:45.694Z</time>
      </trkpt>
      <trkpt lat="43.18358" lon="2.42184">
        <ele>139.1</ele>
        <time>2015-12-16T14:35:51.732Z</time>
      </trkpt>
      <trkpt lat="43.18359" lon="2.42183">
        <ele>139</ele>
        <time>2015-12-16T14:35:52.696Z</time>
      </trkpt>
      <trkpt lat="43.18365" lon="2.42177">
        <ele>138.4</ele>
        <time>2015-12-16T14:35:57.741Z</time>
      </trkpt>
      <trkpt lat="43.18366" lon="2.42175">
        <ele>138.3</ele>
        <time>2015-12-16T14:35:58.711Z</time>
      </trkpt>
      <trkpt lat="43.18374" lon="2.4217">
        <ele>138</ele>
        <time>2015-12-16T14:36:04.766Z</time>
      </trkpt>
      <trkpt lat="43.18375" lon="2.4217">
        <ele>137.9</ele>
        <time>2015-12-16T14:36:05.700Z</time>
      </trkpt>
      <trkpt lat="43.18384" lon="2.42167">
        <ele>138.1</ele>
        <time>2015-12-16T14:36:11.726Z</time>
      </trkpt>
      <trkpt lat="43.18385" lon="2.42166">
        <ele>138.1</ele>
        <time>2015-12-16T14:36:12.694Z</time>
      </trkpt>
      <trkpt lat="43.18393" lon="2.42162">
        <ele>137.7</ele>
        <time>2015-12-16T14:36:19.763Z</time>
      </trkpt>
      <trkpt lat="43.18394" lon="2.42162">
        <ele>137.5</ele>
        <time>2015-12-16T14:36:20.720Z</time>
      </trkpt>
      <trkpt lat="43.18402" lon="2.42159">
        <ele>136.7</ele>
        <time>2015-12-16T14:36:27.764Z</time>
      </trkpt>
      <trkpt lat="43.18403" lon="2.42158">
        <ele>136.6</ele>
        <time>2015-12-16T14:36:28.715Z</time>
      </trkpt>
      <trkpt lat="43.18411" lon="2.42157">
        <ele>136.9</ele>
        <time>2015-12-16T14:36:35.736Z</time>
      </trkpt>
      <trkpt lat="43.18413" lon="2.42157">
        <ele>137.2</ele>
        <time>2015-12-16T14:36:36.687Z</time>
      </trkpt>
      <trkpt lat="43.18422" lon="2.42157">
        <ele>138.1</ele>
        <time>2015-12-16T14:36:42.797Z</time>
      </trkpt>
      <trkpt lat="43.18423" lon="2.42157">
        <ele>138.1</ele>
        <time>2015-12-16T14:36:43.722Z</time>
      </trkpt>
      <trkpt lat="43.1843" lon="2.42156">
        <ele>138.9</ele>
        <time>2015-12-16T14:36:50.949Z</time>
      </trkpt>
      <trkpt lat="43.18432" lon="2.42156">
        <ele>139.2</ele>
        <time>2015-12-16T14:36:51.695Z</time>
      </trkpt>
      <trkpt lat="43.18441" lon="2.42157">
        <ele>140.1</ele>
        <time>2015-12-16T14:36:57.739Z</time>
      </trkpt>
      <trkpt lat="43.18442" lon="2.42157">
        <ele>140.9</ele>
        <time>2015-12-16T14:36:58.702Z</time>
      </trkpt>
      <trkpt lat="43.18451" lon="2.4216">
        <ele>141.5</ele>
        <time>2015-12-16T14:37:06.734Z</time>
      </trkpt>
      <trkpt lat="43.18452" lon="2.4216">
        <ele>141.8</ele>
        <time>2015-12-16T14:37:07.698Z</time>
      </trkpt>
      <trkpt lat="43.1846" lon="2.42164">
        <ele>142.5</ele>
        <time>2015-12-16T14:37:14.757Z</time>
      </trkpt>
      <trkpt lat="43.1846" lon="2.42164">
        <ele>142.8</ele>
        <time>2015-12-16T14:37:15.739Z</time>
      </trkpt>
      <trkpt lat="43.18469" lon="2.42162">
        <ele>143.2</ele>
        <time>2015-12-16T14:37:21.769Z</time>
      </trkpt>
      <trkpt lat="43.1847" lon="2.42161">
        <ele>143.5</ele>
        <time>2015-12-16T14:37:22.717Z</time>
      </trkpt>
      <trkpt lat="43.18477" lon="2.42157">
        <ele>143.6</ele>
        <time>2015-12-16T14:37:27.767Z</time>
      </trkpt>
      <trkpt lat="43.18479" lon="2.42156">
        <ele>143.7</ele>
        <time>2015-12-16T14:37:28.714Z</time>
      </trkpt>
      <trkpt lat="43.18486" lon="2.42151">
        <ele>145</ele>
        <time>2015-12-16T14:37:35.790Z</time>
      </trkpt>
      <trkpt lat="43.18487" lon="2.4215">
        <ele>145.3</ele>
        <time>2015-12-16T14:37:36.688Z</time>
      </trkpt>
      <trkpt lat="43.18494" lon="2.42145">
        <ele>146.1</ele>
        <time>2015-12-16T14:37:43.740Z</time>
      </trkpt>
      <trkpt lat="43.18495" lon="2.42144">
        <ele>146</ele>
        <time>2015-12-16T14:37:44.701Z</time>
      </trkpt>
      <trkpt lat="43.18504" lon="2.42141">
        <ele>146.5</ele>
        <time>2015-12-16T14:37:51.796Z</time>
      </trkpt>
      <trkpt lat="43.18505" lon="2.42141">
        <ele>146.7</ele>
        <time>2015-12-16T14:37:52.696Z</time>
      </trkpt>
      <trkpt lat="43.18512" lon="2.42147">
        <ele>145.1</ele>
        <time>2015-12-16T14:38:01.806Z</time>
      </trkpt>
      <trkpt lat="43.18513" lon="2.42148">
        <ele>144.8</ele>
        <time>2015-12-16T14:38:02.714Z</time>
      </trkpt>
      <trkpt lat="43.18519" lon="2.42157">
        <ele>143</ele>
        <time>2015-12-16T14:38:10.739Z</time>
      </trkpt>
      <trkpt lat="43.18519" lon="2.42158">
        <ele>142.8</ele>
        <time>2015-12-16T14:38:11.702Z</time>
      </trkpt>
      <trkpt lat="43.18522" lon="2.42168">
        <ele>142.3</ele>
        <time>2015-12-16T14:38:17.738Z</time>
      </trkpt>
      <trkpt lat="43.18523" lon="2.4217">
        <ele>142.4</ele>
        <time>2015-12-16T14:38:19.612Z</time>
      </trkpt>
      <trkpt lat="43.18525" lon="2.42181">
        <ele>140.3</ele>
        <time>2015-12-16T14:38:30.738Z</time>
      </trkpt>
      <trkpt lat="43.18525" lon="2.42182">
        <ele>139.7</ele>
        <time>2015-12-16T14:38:31.698Z</time>
      </trkpt>
      <trkpt lat="43.1853" lon="2.42188">
        <ele>136.9</ele>
        <time>2015-12-16T14:38:35.722Z</time>
      </trkpt>
      <trkpt lat="43.18533" lon="2.42189">
        <ele>135.7</ele>
        <time>2015-12-16T14:38:36.686Z</time>
      </trkpt>
      <trkpt lat="43.18536" lon="2.42198">
        <ele>128.7</ele>
        <time>2015-12-16T14:38:44.779Z</time>
      </trkpt>
      <trkpt lat="43.18538" lon="2.42198">
        <ele>128</ele>
        <time>2015-12-16T14:38:45.709Z</time>
      </trkpt>
      <trkpt lat="43.18547" lon="2.42199">
        <ele>125.4</ele>
        <time>2015-12-16T14:38:50.769Z</time>
      </trkpt>
      <trkpt lat="43.18548" lon="2.42199">
        <ele>125.1</ele>
        <time>2015-12-16T14:38:52.093Z</time>
      </trkpt>
      <trkpt lat="43.18557" lon="2.422">
        <ele>124.4</ele>
        <time>2015-12-16T14:38:56.765Z</time>
      </trkpt>
      <trkpt lat="43.18558" lon="2.422">
        <ele>124.3</ele>
        <time>2015-12-16T14:38:57.710Z</time>
      </trkpt>
      <trkpt lat="43.18567" lon="2.42197">
        <ele>124.9</ele>
        <time>2015-12-16T14:39:02.733Z</time>
      </trkpt>
      <trkpt lat="43.18568" lon="2.42197">
        <ele>124.9</ele>
        <time>2015-12-16T14:39:03.696Z</time>
      </trkpt>
      <trkpt lat="43.18576" lon="2.42193">
        <ele>124.9</ele>
        <time>2015-12-16T14:39:10.761Z</time>
      </trkpt>
      <trkpt lat="43.18577" lon="2.42193">
        <ele>125.2</ele>
        <time>2015-12-16T14:39:11.685Z</time>
      </trkpt>
      <trkpt lat="43.18584" lon="2.42187">
        <ele>126.2</ele>
        <time>2015-12-16T14:39:18.741Z</time>
      </trkpt>
      <trkpt lat="43.18585" lon="2.42187">
        <ele>126.4</ele>
        <time>2015-12-16T14:39:19.712Z</time>
      </trkpt>
      <trkpt lat="43.18592" lon="2.42181">
        <ele>127.7</ele>
        <time>2015-12-16T14:39:26.770Z</time>
      </trkpt>
      <trkpt lat="43.18593" lon="2.4218">
        <ele>127.8</ele>
        <time>2015-12-16T14:39:27.718Z</time>
      </trkpt>
      <trkpt lat="43.186" lon="2.42175">
        <ele>128.8</ele>
        <time>2015-12-16T14:39:34.768Z</time>
      </trkpt>
      <trkpt lat="43.18602" lon="2.42173">
        <ele>128.8</ele>
        <time>2015-12-16T14:39:35.746Z</time>
      </trkpt>
      <trkpt lat="43.18609" lon="2.42168">
        <ele>128.9</ele>
        <time>2015-12-16T14:39:42.768Z</time>
      </trkpt>
      <trkpt lat="43.18611" lon="2.42167">
        <ele>128.8</ele>
        <time>2015-12-16T14:39:43.712Z</time>
      </trkpt>
      <trkpt lat="43.18618" lon="2.42163">
        <ele>129.2</ele>
        <time>2015-12-16T14:39:50.746Z</time>
      </trkpt>
      <trkpt lat="43.18619" lon="2.42163">
        <ele>129.4</ele>
        <time>2015-12-16T14:39:51.697Z</time>
      </trkpt>
      <trkpt lat="43.18627" lon="2.42161">
        <ele>130.3</ele>
        <time>2015-12-16T14:39:57.763Z</time>
      </trkpt>
      <trkpt lat="43.18628" lon="2.4216">
        <ele>130.6</ele>
        <time>2015-12-16T14:39:58.717Z</time>
      </trkpt>
      <trkpt lat="43.18636" lon="2.42155">
        <ele>132.2</ele>
        <time>2015-12-16T14:40:05.873Z</time>
      </trkpt>
      <trkpt lat="43.18638" lon="2.42155">
        <ele>132.3</ele>
        <time>2015-12-16T14:40:06.721Z</time>
      </trkpt>
      <trkpt lat="43.18645" lon="2.42149">
        <ele>134.6</ele>
        <time>2015-12-16T14:40:13.970Z</time>
      </trkpt>
      <trkpt lat="43.18646" lon="2.42148">
        <ele>134.9</ele>
        <time>2015-12-16T14:40:14.702Z</time>
      </trkpt>
      <trkpt lat="43.18653" lon="2.42142">
        <ele>136</ele>
        <time>2015-12-16T14:40:21.160Z</time>
      </trkpt>
      <trkpt lat="43.18653" lon="2.42141">
        <ele>136.2</ele>
        <time>2015-12-16T14:40:21.694Z</time>
      </trkpt>
      <trkpt lat="43.18661" lon="2.42135">
        <ele>137.3</ele>
        <time>2015-12-16T14:40:30.732Z</time>
      </trkpt>
      <trkpt lat="43.18662" lon="2.42135">
        <ele>137.5</ele>
        <time>2015-12-16T14:40:31.688Z</time>
      </trkpt>
      <trkpt lat="43.1867" lon="2.42132">
        <ele>138.8</ele>
        <time>2015-12-16T14:40:39.744Z</time>
      </trkpt>
      <trkpt lat="43.18671" lon="2.42132">
        <ele>138.9</ele>
        <time>2015-12-16T14:40:40.698Z</time>
      </trkpt>
      <trkpt lat="43.18679" lon="2.42132">
        <ele>139.5</ele>
        <time>2015-12-16T14:40:44.749Z</time>
      </trkpt>
      <trkpt lat="43.1868" lon="2.42133">
        <ele>139.5</ele>
        <time>2015-12-16T14:40:45.693Z</time>
      </trkpt>
      <trkpt lat="43.18688" lon="2.42133">
        <ele>140.5</ele>
        <time>2015-12-16T14:40:51.737Z</time>
      </trkpt>
      <trkpt lat="43.18691" lon="2.42135">
        <ele>140.6</ele>
        <time>2015-12-16T14:40:52.708Z</time>
      </trkpt>
      <trkpt lat="43.18699" lon="2.42134">
        <ele>140.9</ele>
        <time>2015-12-16T14:40:56.733Z</time>
      </trkpt>
      <trkpt lat="43.187" lon="2.42132">
        <ele>140.7</ele>
        <time>2015-12-16T14:40:57.707Z</time>
      </trkpt>
      <trkpt lat="43.18701" lon="2.42122">
        <ele>140.4</ele>
        <time>2015-12-16T14:41:01.764Z</time>
      </trkpt>
      <trkpt lat="43.187" lon="2.42118">
        <ele>139.7</ele>
        <time>2015-12-16T14:41:02.696Z</time>
      </trkpt>
      <trkpt lat="43.18706" lon="2.42109">
        <ele>137</ele>
        <time>2015-12-16T14:41:08.741Z</time>
      </trkpt>
      <trkpt lat="43.18707" lon="2.42109">
        <ele>137</ele>
        <time>2015-12-16T14:41:09.714Z</time>
      </trkpt>
      <trkpt lat="43.18713" lon="2.42101">
        <ele>137</ele>
        <time>2015-12-16T14:41:17.764Z</time>
      </trkpt>
      <trkpt lat="43.18714" lon="2.42101">
        <ele>136.9</ele>
        <time>2015-12-16T14:41:18.718Z</time>
      </trkpt>
      <trkpt lat="43.1872" lon="2.42092">
        <ele>136.2</ele>
        <time>2015-12-16T14:41:25.781Z</time>
      </trkpt>
      <trkpt lat="43.1872" lon="2.42091">
        <ele>136.3</ele>
        <time>2015-12-16T14:41:26.716Z</time>
      </trkpt>
      <trkpt lat="43.18725" lon="2.4208">
        <ele>136.5</ele>
        <time>2015-12-16T14:41:34.731Z</time>
      </trkpt>
      <trkpt lat="43.18725" lon="2.42078">
        <ele>136.5</ele>
        <time>2015-12-16T14:41:35.714Z</time>
      </trkpt>
      <trkpt lat="43.18727" lon="2.42067">
        <ele>135.9</ele>
        <time>2015-12-16T14:41:43.733Z</time>
      </trkpt>
      <trkpt lat="43.18727" lon="2.42065">
        <ele>135.8</ele>
        <time>2015-12-16T14:41:44.720Z</time>
      </trkpt>
      <trkpt lat="43.18726" lon="2.42054">
        <ele>135.1</ele>
        <time>2015-12-16T14:41:50.737Z</time>
      </trkpt>
      <trkpt lat="43.18725" lon="2.42052">
        <ele>135</ele>
        <time>2015-12-16T14:41:51.701Z</time>
      </trkpt>
      <trkpt lat="43.18721" lon="2.42041">
        <ele>134.7</ele>
        <time>2015-12-16T14:41:54.775Z</time>
      </trkpt>
      <trkpt lat="43.1872" lon="2.42038">
        <ele>134.9</ele>
        <time>2015-12-16T14:41:55.718Z</time>
      </trkpt>
      <trkpt lat="43.1872" lon="2.42026">
        <ele>134.7</ele>
        <time>2015-12-16T14:42:01.759Z</time>
      </trkpt>
      <trkpt lat="43.18719" lon="2.42024">
        <ele>134.7</ele>
        <time>2015-12-16T14:42:02.706Z</time>
      </trkpt>
      <trkpt lat="43.18715" lon="2.42014">
        <ele>135.9</ele>
        <time>2015-12-16T14:42:23.731Z</time>
      </trkpt>
      <trkpt lat="43.18717" lon="2.42011">
        <ele>136.5</ele>
        <time>2015-12-16T14:42:24.699Z</time>
      </trkpt>
      <trkpt lat="43.18716" lon="2.42">
        <ele>135.8</ele>
        <time>2015-12-16T14:42:43.940Z</time>
      </trkpt>
      <trkpt lat="43.18716" lon="2.41998">
        <ele>135.8</ele>
        <time>2015-12-16T14:42:44.696Z</time>
      </trkpt>
      <trkpt lat="43.18715" lon="2.41987">
        <ele>135.5</ele>
        <time>2015-12-16T14:42:52.740Z</time>
      </trkpt>
      <trkpt lat="43.18715" lon="2.41985">
        <ele>135.4</ele>
        <time>2015-12-16T14:42:53.909Z</time>
      </trkpt>
      <trkpt lat="43.18714" lon="2.41974">
        <ele>135.5</ele>
        <time>2015-12-16T14:42:58.728Z</time>
      </trkpt>
      <trkpt lat="43.18714" lon="2.41973">
        <ele>135.4</ele>
        <time>2015-12-16T14:42:59.697Z</time>
      </trkpt>
      <trkpt lat="43.1871" lon="2.41962">
        <ele>134.8</ele>
        <time>2015-12-16T14:43:06.741Z</time>
      </trkpt>
      <trkpt lat="43.1871" lon="2.41961">
        <ele>134.8</ele>
        <time>2015-12-16T14:43:07.712Z</time>
      </trkpt>
      <trkpt lat="43.18707" lon="2.4195">
        <ele>134.7</ele>
        <time>2015-12-16T14:43:13.730Z</time>
      </trkpt>
      <trkpt lat="43.18707" lon="2.41948">
        <ele>134.6</ele>
        <time>2015-12-16T14:43:14.702Z</time>
      </trkpt>
      <trkpt lat="43.18708" lon="2.41937">
        <ele>134.3</ele>
        <time>2015-12-16T14:43:20.780Z</time>
      </trkpt>
      <trkpt lat="43.18708" lon="2.41935">
        <ele>134.3</ele>
        <time>2015-12-16T14:43:21.712Z</time>
      </trkpt>
      <trkpt lat="43.18706" lon="2.41923">
        <ele>134.9</ele>
        <time>2015-12-16T14:43:27.744Z</time>
      </trkpt>
      <trkpt lat="43.18706" lon="2.41921">
        <ele>134.9</ele>
        <time>2015-12-16T14:43:28.689Z</time>
      </trkpt>
      <trkpt lat="43.18705" lon="2.4191">
        <ele>135.1</ele>
        <time>2015-12-16T14:43:34.763Z</time>
      </trkpt>
      <trkpt lat="43.18705" lon="2.41909">
        <ele>135.1</ele>
        <time>2015-12-16T14:43:35.715Z</time>
      </trkpt>
      <trkpt lat="43.18703" lon="2.41898">
        <ele>136</ele>
        <time>2015-12-16T14:43:41.730Z</time>
      </trkpt>
      <trkpt lat="43.18702" lon="2.41896">
        <ele>136.1</ele>
        <time>2015-12-16T14:43:42.703Z</time>
      </trkpt>
      <trkpt lat="43.18701" lon="2.41886">
        <ele>136.7</ele>
        <time>2015-12-16T14:43:48.718Z</time>
      </trkpt>
      <trkpt lat="43.18701" lon="2.41883">
        <ele>136.9</ele>
        <time>2015-12-16T14:43:49.697Z</time>
      </trkpt>
      <trkpt lat="43.18701" lon="2.41872">
        <ele>137.9</ele>
        <time>2015-12-16T14:43:55.741Z</time>
      </trkpt>
      <trkpt lat="43.187" lon="2.4187">
        <ele>138</ele>
        <time>2015-12-16T14:43:56.689Z</time>
      </trkpt>
      <trkpt lat="43.187" lon="2.41858">
        <ele>138.7</ele>
        <time>2015-12-16T14:44:03.906Z</time>
      </trkpt>
      <trkpt lat="43.18699" lon="2.41857">
        <ele>138.8</ele>
        <time>2015-12-16T14:44:04.699Z</time>
      </trkpt>
      <trkpt lat="43.18698" lon="2.41846">
        <ele>140.6</ele>
        <time>2015-12-16T14:44:11.760Z</time>
      </trkpt>
      <trkpt lat="43.18698" lon="2.41844">
        <ele>140.7</ele>
        <time>2015-12-16T14:44:12.701Z</time>
      </trkpt>
      <trkpt lat="43.18697" lon="2.41832">
        <ele>142.1</ele>
        <time>2015-12-16T14:44:19.744Z</time>
      </trkpt>
      <trkpt lat="43.18698" lon="2.41831">
        <ele>142.4</ele>
        <time>2015-12-16T14:44:20.697Z</time>
      </trkpt>
      <trkpt lat="43.18697" lon="2.41821">
        <ele>138.3</ele>
        <time>2015-12-16T14:44:56.726Z</time>
      </trkpt>
      <trkpt lat="43.18695" lon="2.41819">
        <ele>137.8</ele>
        <time>2015-12-16T14:44:57.695Z</time>
      </trkpt>
      <trkpt lat="43.18688" lon="2.41814">
        <ele>136.6</ele>
        <time>2015-12-16T14:45:05.762Z</time>
      </trkpt>
      <trkpt lat="43.18687" lon="2.41813">
        <ele>136.4</ele>
        <time>2015-12-16T14:45:06.718Z</time>
      </trkpt>
      <trkpt lat="43.18679" lon="2.41814">
        <ele>135.7</ele>
        <time>2015-12-16T14:45:12.737Z</time>
      </trkpt>
      <trkpt lat="43.18678" lon="2.41814">
        <ele>135.7</ele>
        <time>2015-12-16T14:45:13.718Z</time>
      </trkpt>
      <trkpt lat="43.18669" lon="2.41816">
        <ele>136.2</ele>
        <time>2015-12-16T14:45:18.727Z</time>
      </trkpt>
      <trkpt lat="43.18668" lon="2.41817">
        <ele>136.3</ele>
        <time>2015-12-16T14:45:19.699Z</time>
      </trkpt>
      <trkpt lat="43.1866" lon="2.41815">
        <ele>137.1</ele>
        <time>2015-12-16T14:45:25.780Z</time>
      </trkpt>
      <trkpt lat="43.18659" lon="2.41814">
        <ele>137.2</ele>
        <time>2015-12-16T14:45:26.721Z</time>
      </trkpt>
      <trkpt lat="43.18652" lon="2.4181">
        <ele>137.9</ele>
        <time>2015-12-16T14:45:32.763Z</time>
      </trkpt>
      <trkpt lat="43.1865" lon="2.4181">
        <ele>138.2</ele>
        <time>2015-12-16T14:45:33.814Z</time>
      </trkpt>
      <trkpt lat="43.18642" lon="2.41804">
        <ele>140</ele>
        <time>2015-12-16T14:45:40.739Z</time>
      </trkpt>
      <trkpt lat="43.18642" lon="2.41803">
        <ele>140.3</ele>
        <time>2015-12-16T14:45:41.696Z</time>
      </trkpt>
      <trkpt lat="43.18638" lon="2.41792">
        <ele>144.2</ele>
        <time>2015-12-16T14:45:51.138Z</time>
      </trkpt>
      <trkpt lat="43.18638" lon="2.4179">
        <ele>144.8</ele>
        <time>2015-12-16T14:45:51.702Z</time>
      </trkpt>
      <trkpt lat="43.18641" lon="2.4178">
        <ele>146.9</ele>
        <time>2015-12-16T14:45:56.763Z</time>
      </trkpt>
      <trkpt lat="43.18641" lon="2.41778">
        <ele>147.2</ele>
        <time>2015-12-16T14:45:57.711Z</time>
      </trkpt>
      <trkpt lat="43.18645" lon="2.41768">
        <ele>149.4</ele>
        <time>2015-12-16T14:46:04.735Z</time>
      </trkpt>
      <trkpt lat="43.18645" lon="2.41766">
        <ele>149.7</ele>
        <time>2015-12-16T14:46:05.703Z</time>
      </trkpt>
      <trkpt lat="43.18643" lon="2.41755">
        <ele>151.7</ele>
        <time>2015-12-16T14:46:12.722Z</time>
      </trkpt>
      <trkpt lat="43.18643" lon="2.41753">
        <ele>152.1</ele>
        <time>2015-12-16T14:46:13.689Z</time>
      </trkpt>
      <trkpt lat="43.18639" lon="2.41743">
        <ele>154.4</ele>
        <time>2015-12-16T14:46:19.781Z</time>
      </trkpt>
      <trkpt lat="43.18638" lon="2.41741">
        <ele>154.8</ele>
        <time>2015-12-16T14:46:20.692Z</time>
      </trkpt>
      <trkpt lat="43.18637" lon="2.41729">
        <ele>156.8</ele>
        <time>2015-12-16T14:46:28.770Z</time>
      </trkpt>
      <trkpt lat="43.18637" lon="2.41727">
        <ele>157.2</ele>
        <time>2015-12-16T14:46:29.710Z</time>
      </trkpt>
      <trkpt lat="43.18636" lon="2.41716">
        <ele>158.7</ele>
        <time>2015-12-16T14:46:35.768Z</time>
      </trkpt>
      <trkpt lat="43.18636" lon="2.41714">
        <ele>159</ele>
        <time>2015-12-16T14:46:36.716Z</time>
      </trkpt>
      <trkpt lat="43.18634" lon="2.41703">
        <ele>159.2</ele>
        <time>2015-12-16T14:46:40.733Z</time>
      </trkpt>
      <trkpt lat="43.18634" lon="2.41701">
        <ele>159.4</ele>
        <time>2015-12-16T14:46:41.715Z</time>
      </trkpt>
      <trkpt lat="43.18637" lon="2.4169">
        <ele>160.5</ele>
        <time>2015-12-16T14:46:48.056Z</time>
      </trkpt>
      <trkpt lat="43.18637" lon="2.41688">
        <ele>160.8</ele>
        <time>2015-12-16T14:46:48.696Z</time>
      </trkpt>
      <trkpt lat="43.18636" lon="2.41678">
        <ele>162.2</ele>
        <time>2015-12-16T14:46:52.757Z</time>
      </trkpt>
      <trkpt lat="43.18636" lon="2.41675">
        <ele>162.5</ele>
        <time>2015-12-16T14:46:53.710Z</time>
      </trkpt>
      <trkpt lat="43.18636" lon="2.41664">
        <ele>163.9</ele>
        <time>2015-12-16T14:46:57.736Z</time>
      </trkpt>
      <trkpt lat="43.18636" lon="2.41661">
        <ele>164.2</ele>
        <time>2015-12-16T14:46:58.717Z</time>
      </trkpt>
      <trkpt lat="43.18639" lon="2.41649">
        <ele>165.9</ele>
        <time>2015-12-16T14:47:03.751Z</time>
      </trkpt>
      <trkpt lat="43.18639" lon="2.41648">
        <ele>166.2</ele>
        <time>2015-12-16T14:47:04.692Z</time>
      </trkpt>
      <trkpt lat="43.18641" lon="2.41637">
        <ele>167</ele>
        <time>2015-12-16T14:47:11.724Z</time>
      </trkpt>
      <trkpt lat="43.18641" lon="2.41635">
        <ele>167.2</ele>
        <time>2015-12-16T14:47:12.709Z</time>
      </trkpt>
      <trkpt lat="43.18644" lon="2.41624">
        <ele>167.3</ele>
        <time>2015-12-16T14:47:19.749Z</time>
      </trkpt>
      <trkpt lat="43.18645" lon="2.41624">
        <ele>167.2</ele>
        <time>2015-12-16T14:47:20.707Z</time>
      </trkpt>
      <trkpt lat="43.18649" lon="2.41613">
        <ele>165.6</ele>
        <time>2015-12-16T14:47:28.762Z</time>
      </trkpt>
      <trkpt lat="43.18649" lon="2.41612">
        <ele>165.5</ele>
        <time>2015-12-16T14:47:29.716Z</time>
      </trkpt>
      <trkpt lat="43.18651" lon="2.41601">
        <ele>165.2</ele>
        <time>2015-12-16T14:47:35.727Z</time>
      </trkpt>
      <trkpt lat="43.18651" lon="2.41599">
        <ele>165.2</ele>
        <time>2015-12-16T14:47:36.700Z</time>
      </trkpt>
      <trkpt lat="43.18652" lon="2.41588">
        <ele>165.3</ele>
        <time>2015-12-16T14:47:42.785Z</time>
      </trkpt>
      <trkpt lat="43.18652" lon="2.41586">
        <ele>165.4</ele>
        <time>2015-12-16T14:47:43.722Z</time>
      </trkpt>
      <trkpt lat="43.18653" lon="2.41574">
        <ele>165.8</ele>
        <time>2015-12-16T14:47:49.730Z</time>
      </trkpt>
      <trkpt lat="43.18653" lon="2.41572">
        <ele>165.8</ele>
        <time>2015-12-16T14:47:50.700Z</time>
      </trkpt>
      <trkpt lat="43.18654" lon="2.41561">
        <ele>165.9</ele>
        <time>2015-12-16T14:47:55.730Z</time>
      </trkpt>
      <trkpt lat="43.18654" lon="2.41559">
        <ele>165.9</ele>
        <time>2015-12-16T14:47:56.699Z</time>
      </trkpt>
      <trkpt lat="43.18657" lon="2.41549">
        <ele>166.1</ele>
        <time>2015-12-16T14:48:02.788Z</time>
      </trkpt>
      <trkpt lat="43.18657" lon="2.41547">
        <ele>166.3</ele>
        <time>2015-12-16T14:48:03.715Z</time>
      </trkpt>
      <trkpt lat="43.18661" lon="2.41536">
        <ele>166.8</ele>
        <time>2015-12-16T14:48:09.906Z</time>
      </trkpt>
      <trkpt lat="43.18661" lon="2.41534">
        <ele>166.8</ele>
        <time>2015-12-16T14:48:10.699Z</time>
      </trkpt>
      <trkpt lat="43.18657" lon="2.41524">
        <ele>167.1</ele>
        <time>2015-12-16T14:48:15.732Z</time>
      </trkpt>
      <trkpt lat="43.18655" lon="2.41521">
        <ele>166.8</ele>
        <time>2015-12-16T14:48:16.694Z</time>
      </trkpt>
      <trkpt lat="43.18651" lon="2.41514">
        <ele>166</ele>
        <time>2015-12-16T14:48:19.787Z</time>
      </trkpt>
      <trkpt lat="43.18648" lon="2.41511">
        <ele>165.1</ele>
        <time>2015-12-16T14:48:20.714Z</time>
      </trkpt>
      <trkpt lat="43.18641" lon="2.41505">
        <ele>162.7</ele>
        <time>2015-12-16T14:48:24.735Z</time>
      </trkpt>
      <trkpt lat="43.1864" lon="2.41503">
        <ele>162.3</ele>
        <time>2015-12-16T14:48:25.705Z</time>
      </trkpt>
      <trkpt lat="43.18632" lon="2.41499">
        <ele>160.4</ele>
        <time>2015-12-16T14:48:31.741Z</time>
      </trkpt>
      <trkpt lat="43.18631" lon="2.41499">
        <ele>160.2</ele>
        <time>2015-12-16T14:48:32.700Z</time>
      </trkpt>
      <trkpt lat="43.18622" lon="2.41498">
        <ele>158.5</ele>
        <time>2015-12-16T14:48:39.759Z</time>
      </trkpt>
      <trkpt lat="43.1862" lon="2.41498">
        <ele>158.5</ele>
        <time>2015-12-16T14:48:40.717Z</time>
      </trkpt>
      <trkpt lat="43.18613" lon="2.41499">
        <ele>158.2</ele>
        <time>2015-12-16T14:48:47.214Z</time>
      </trkpt>
      <trkpt lat="43.18611" lon="2.41499">
        <ele>158.2</ele>
        <time>2015-12-16T14:48:47.686Z</time>
      </trkpt>
      <trkpt lat="43.18603" lon="2.41501">
        <ele>156.9</ele>
        <time>2015-12-16T14:48:52.768Z</time>
      </trkpt>
      <trkpt lat="43.18601" lon="2.41502">
        <ele>156.3</ele>
        <time>2015-12-16T14:48:53.712Z</time>
      </trkpt>
      <trkpt lat="43.18593" lon="2.41506">
        <ele>153.4</ele>
        <time>2015-12-16T14:48:58.785Z</time>
      </trkpt>
      <trkpt lat="43.18591" lon="2.41508">
        <ele>153</ele>
        <time>2015-12-16T14:48:59.710Z</time>
      </trkpt>
      <trkpt lat="43.18583" lon="2.41513">
        <ele>151.9</ele>
        <time>2015-12-16T14:49:04.761Z</time>
      </trkpt>
      <trkpt lat="43.18581" lon="2.41513">
        <ele>151.7</ele>
        <time>2015-12-16T14:49:05.707Z</time>
      </trkpt>
      <trkpt lat="43.18573" lon="2.41518">
        <ele>150.7</ele>
        <time>2015-12-16T14:49:10.726Z</time>
      </trkpt>
      <trkpt lat="43.18572" lon="2.41519">
        <ele>150.6</ele>
        <time>2015-12-16T14:49:11.696Z</time>
      </trkpt>
      <trkpt lat="43.18565" lon="2.41524">
        <ele>150.1</ele>
        <time>2015-12-16T14:49:16.771Z</time>
      </trkpt>
      <trkpt lat="43.18564" lon="2.41525">
        <ele>149.9</ele>
        <time>2015-12-16T14:49:17.686Z</time>
      </trkpt>
      <trkpt lat="43.18558" lon="2.41534">
        <ele>148.6</ele>
        <time>2015-12-16T14:49:27.718Z</time>
      </trkpt>
      <trkpt lat="43.18558" lon="2.41535">
        <ele>148.5</ele>
        <time>2015-12-16T14:49:28.695Z</time>
      </trkpt>
      <trkpt lat="43.18561" lon="2.41546">
        <ele>146</ele>
        <time>2015-12-16T14:49:38.768Z</time>
      </trkpt>
      <trkpt lat="43.18561" lon="2.41548">
        <ele>145.8</ele>
        <time>2015-12-16T14:49:39.703Z</time>
      </trkpt>
      <trkpt lat="43.18562" lon="2.41559">
        <ele>145.3</ele>
        <time>2015-12-16T14:49:49.742Z</time>
      </trkpt>
      <trkpt lat="43.18562" lon="2.4156">
        <ele>145.3</ele>
        <time>2015-12-16T14:49:50.711Z</time>
      </trkpt>
      <trkpt lat="43.18559" lon="2.41571">
        <ele>144.5</ele>
        <time>2015-12-16T14:50:00.763Z</time>
      </trkpt>
      <trkpt lat="43.18558" lon="2.41573">
        <ele>144.5</ele>
        <time>2015-12-16T14:50:01.714Z</time>
      </trkpt>
      <trkpt lat="43.18554" lon="2.41583">
        <ele>143.2</ele>
        <time>2015-12-16T14:50:09.728Z</time>
      </trkpt>
      <trkpt lat="43.18554" lon="2.41584">
        <ele>142.9</ele>
        <time>2015-12-16T14:50:10.700Z</time>
      </trkpt>
      <trkpt lat="43.18551" lon="2.41595">
        <ele>142.4</ele>
        <time>2015-12-16T14:50:16.718Z</time>
      </trkpt>
      <trkpt lat="43.18552" lon="2.41596">
        <ele>142.4</ele>
        <time>2015-12-16T14:50:17.695Z</time>
      </trkpt>
      <trkpt lat="43.18549" lon="2.41606">
        <ele>141.5</ele>
        <time>2015-12-16T14:50:25.196Z</time>
      </trkpt>
      <trkpt lat="43.18549" lon="2.41608">
        <ele>141.4</ele>
        <time>2015-12-16T14:50:25.703Z</time>
      </trkpt>
      <trkpt lat="43.18547" lon="2.41618">
        <ele>140.7</ele>
        <time>2015-12-16T14:50:31.765Z</time>
      </trkpt>
      <trkpt lat="43.18546" lon="2.41621">
        <ele>140.5</ele>
        <time>2015-12-16T14:50:32.714Z</time>
      </trkpt>
      <trkpt lat="43.18545" lon="2.41631">
        <ele>140.1</ele>
        <time>2015-12-16T14:50:36.763Z</time>
      </trkpt>
      <trkpt lat="43.18544" lon="2.41633">
        <ele>140.1</ele>
        <time>2015-12-16T14:50:37.723Z</time>
      </trkpt>
      <trkpt lat="43.18544" lon="2.41644">
        <ele>139.8</ele>
        <time>2015-12-16T14:50:42.733Z</time>
      </trkpt>
      <trkpt lat="43.18544" lon="2.41647">
        <ele>139.6</ele>
        <time>2015-12-16T14:50:43.699Z</time>
      </trkpt>
      <trkpt lat="43.18542" lon="2.41656">
        <ele>138.5</ele>
        <time>2015-12-16T14:50:48.729Z</time>
      </trkpt>
      <trkpt lat="43.18541" lon="2.41659">
        <ele>138.3</ele>
        <time>2015-12-16T14:50:49.702Z</time>
      </trkpt>
      <trkpt lat="43.18541" lon="2.41669">
        <ele>137.1</ele>
        <time>2015-12-16T14:50:52.765Z</time>
      </trkpt>
      <trkpt lat="43.18541" lon="2.41672">
        <ele>136.6</ele>
        <time>2015-12-16T14:50:53.710Z</time>
      </trkpt>
      <trkpt lat="43.18541" lon="2.41683">
        <ele>135.8</ele>
        <time>2015-12-16T14:50:59.719Z</time>
      </trkpt>
      <trkpt lat="43.18541" lon="2.41685">
        <ele>135.6</ele>
        <time>2015-12-16T14:51:00.696Z</time>
      </trkpt>
      <trkpt lat="43.1854" lon="2.41697">
        <ele>134.8</ele>
        <time>2015-12-16T14:51:07.743Z</time>
      </trkpt>
      <trkpt lat="43.1854" lon="2.41699">
        <ele>134.6</ele>
        <time>2015-12-16T14:51:08.687Z</time>
      </trkpt>
      <trkpt lat="43.18535" lon="2.41709">
        <ele>133.1</ele>
        <time>2015-12-16T14:51:14.734Z</time>
      </trkpt>
      <trkpt lat="43.18534" lon="2.4171">
        <ele>132.9</ele>
        <time>2015-12-16T14:51:15.696Z</time>
      </trkpt>
      <trkpt lat="43.1853" lon="2.41717">
        <ele>132.1</ele>
        <time>2015-12-16T14:51:21.796Z</time>
      </trkpt>
      <trkpt lat="43.18527" lon="2.41723">
        <ele>131.8</ele>
        <time>2015-12-16T14:51:22.702Z</time>
      </trkpt>
      <trkpt lat="43.18524" lon="2.41731">
        <ele>130.9</ele>
        <time>2015-12-16T14:51:25.741Z</time>
      </trkpt>
      <trkpt lat="43.18523" lon="2.41734">
        <ele>130.8</ele>
        <time>2015-12-16T14:51:26.712Z</time>
      </trkpt>
      <trkpt lat="43.18517" lon="2.41744">
        <ele>131.2</ele>
        <time>2015-12-16T14:51:30.740Z</time>
      </trkpt>
      <trkpt lat="43.18515" lon="2.41746">
        <ele>131.3</ele>
        <time>2015-12-16T14:51:31.730Z</time>
      </trkpt>
      <trkpt lat="43.18507" lon="2.41751">
        <ele>131.4</ele>
        <time>2015-12-16T14:51:37.740Z</time>
      </trkpt>
      <trkpt lat="43.18506" lon="2.4175">
        <ele>131.4</ele>
        <time>2015-12-16T14:51:38.686Z</time>
      </trkpt>
      <trkpt lat="43.18499" lon="2.41743">
        <ele>132.3</ele>
        <time>2015-12-16T14:51:47.731Z</time>
      </trkpt>
      <trkpt lat="43.18498" lon="2.41743">
        <ele>132.4</ele>
        <time>2015-12-16T14:51:48.697Z</time>
      </trkpt>
      <trkpt lat="43.18491" lon="2.41736">
        <ele>132.5</ele>
        <time>2015-12-16T14:51:57.165Z</time>
      </trkpt>
      <trkpt lat="43.1849" lon="2.41736">
        <ele>132.7</ele>
        <time>2015-12-16T14:51:57.688Z</time>
      </trkpt>
      <trkpt lat="43.18482" lon="2.41732">
        <ele>133.2</ele>
        <time>2015-12-16T14:52:04.775Z</time>
      </trkpt>
      <trkpt lat="43.18481" lon="2.41731">
        <ele>133.3</ele>
        <time>2015-12-16T14:52:05.707Z</time>
      </trkpt>
      <trkpt lat="43.18473" lon="2.41727">
        <ele>133.1</ele>
        <time>2015-12-16T14:52:12.756Z</time>
      </trkpt>
      <trkpt lat="43.18471" lon="2.41727">
        <ele>132.9</ele>
        <time>2015-12-16T14:52:13.932Z</time>
      </trkpt>
      <trkpt lat="43.18464" lon="2.41724">
        <ele>133.4</ele>
        <time>2015-12-16T14:52:17.737Z</time>
      </trkpt>
      <trkpt lat="43.18462" lon="2.41723">
        <ele>133.8</ele>
        <time>2015-12-16T14:52:18.713Z</time>
      </trkpt>
      <trkpt lat="43.18454" lon="2.41722">
        <ele>134</ele>
        <time>2015-12-16T14:52:23.778Z</time>
      </trkpt>
      <trkpt lat="43.18453" lon="2.41722">
        <ele>134</ele>
        <time>2015-12-16T14:52:24.688Z</time>
      </trkpt>
      <trkpt lat="43.18444" lon="2.41721">
        <ele>133.8</ele>
        <time>2015-12-16T14:52:30.726Z</time>
      </trkpt>
      <trkpt lat="43.18442" lon="2.41721">
        <ele>133.9</ele>
        <time>2015-12-16T14:52:31.703Z</time>
      </trkpt>
      <trkpt lat="43.18434" lon="2.41721">
        <ele>133.9</ele>
        <time>2015-12-16T14:52:38.729Z</time>
      </trkpt>
      <trkpt lat="43.18433" lon="2.41721">
        <ele>134.1</ele>
        <time>2015-12-16T14:52:39.701Z</time>
      </trkpt>
      <trkpt lat="43.18425" lon="2.41723">
        <ele>134.5</ele>
        <time>2015-12-16T14:52:44.762Z</time>
      </trkpt>
      <trkpt lat="43.18424" lon="2.41723">
        <ele>134.4</ele>
        <time>2015-12-16T14:52:45.719Z</time>
      </trkpt>
      <trkpt lat="43.18415" lon="2.41724">
        <ele>134.3</ele>
        <time>2015-12-16T14:52:51.063Z</time>
      </trkpt>
      <trkpt lat="43.18414" lon="2.41725">
        <ele>134.5</ele>
        <time>2015-12-16T14:52:51.688Z</time>
      </trkpt>
      <trkpt lat="43.18406" lon="2.41728">
        <ele>134.3</ele>
        <time>2015-12-16T14:52:56.768Z</time>
      </trkpt>
      <trkpt lat="43.18404" lon="2.41728">
        <ele>134.1</ele>
        <time>2015-12-16T14:52:57.711Z</time>
      </trkpt>
      <trkpt lat="43.18397" lon="2.41731">
        <ele>133.4</ele>
        <time>2015-12-16T14:53:01.741Z</time>
      </trkpt>
      <trkpt lat="43.18396" lon="2.41732">
        <ele>133.6</ele>
        <time>2015-12-16T14:53:02.698Z</time>
      </trkpt>
      <trkpt lat="43.18388" lon="2.41738">
        <ele>133.7</ele>
        <time>2015-12-16T14:53:07.781Z</time>
      </trkpt>
      <trkpt lat="43.18387" lon="2.41739">
        <ele>133.6</ele>
        <time>2015-12-16T14:53:08.710Z</time>
      </trkpt>
      <trkpt lat="43.1838" lon="2.41745">
        <ele>133.5</ele>
        <time>2015-12-16T14:53:14.732Z</time>
      </trkpt>
      <trkpt lat="43.18379" lon="2.41746">
        <ele>133.6</ele>
        <time>2015-12-16T14:53:15.702Z</time>
      </trkpt>
      <trkpt lat="43.18372" lon="2.41753">
        <ele>133.7</ele>
        <time>2015-12-16T14:53:20.735Z</time>
      </trkpt>
      <trkpt lat="43.18371" lon="2.41754">
        <ele>133.7</ele>
        <time>2015-12-16T14:53:21.704Z</time>
      </trkpt>
      <trkpt lat="43.18364" lon="2.4176">
        <ele>134.1</ele>
        <time>2015-12-16T14:53:27.737Z</time>
      </trkpt>
      <trkpt lat="43.18363" lon="2.41761">
        <ele>134.1</ele>
        <time>2015-12-16T14:53:28.699Z</time>
      </trkpt>
      <trkpt lat="43.18355" lon="2.41766">
        <ele>134.1</ele>
        <time>2015-12-16T14:53:34.764Z</time>
      </trkpt>
      <trkpt lat="43.18353" lon="2.41767">
        <ele>133.9</ele>
        <time>2015-12-16T14:53:35.712Z</time>
      </trkpt>
      <trkpt lat="43.18346" lon="2.41774">
        <ele>133.2</ele>
        <time>2015-12-16T14:53:41.736Z</time>
      </trkpt>
      <trkpt lat="43.18345" lon="2.41776">
        <ele>133</ele>
        <time>2015-12-16T14:53:42.700Z</time>
      </trkpt>
      <trkpt lat="43.18339" lon="2.41783">
        <ele>133.1</ele>
        <time>2015-12-16T14:53:48.776Z</time>
      </trkpt>
      <trkpt lat="43.18338" lon="2.41784">
        <ele>133</ele>
        <time>2015-12-16T14:53:49.718Z</time>
      </trkpt>
      <trkpt lat="43.18331" lon="2.41791">
        <ele>132.8</ele>
        <time>2015-12-16T14:53:55.023Z</time>
      </trkpt>
      <trkpt lat="43.18329" lon="2.41792">
        <ele>132.8</ele>
        <time>2015-12-16T14:53:55.701Z</time>
      </trkpt>
      <trkpt lat="43.18321" lon="2.41794">
        <ele>133</ele>
        <time>2015-12-16T14:54:01.740Z</time>
      </trkpt>
      <trkpt lat="43.18319" lon="2.41794">
        <ele>132.9</ele>
        <time>2015-12-16T14:54:02.695Z</time>
      </trkpt>
      <trkpt lat="43.18311" lon="2.41792">
        <ele>133.7</ele>
        <time>2015-12-16T14:54:08.741Z</time>
      </trkpt>
      <trkpt lat="43.1831" lon="2.41791">
        <ele>134</ele>
        <time>2015-12-16T14:54:09.704Z</time>
      </trkpt>
      <trkpt lat="43.18303" lon="2.41784">
        <ele>135.4</ele>
        <time>2015-12-16T14:54:16.732Z</time>
      </trkpt>
      <trkpt lat="43.18301" lon="2.41782">
        <ele>135.5</ele>
        <time>2015-12-16T14:54:17.704Z</time>
      </trkpt>
      <trkpt lat="43.18297" lon="2.41772">
        <ele>135.7</ele>
        <time>2015-12-16T14:54:23.734Z</time>
      </trkpt>
      <trkpt lat="43.18296" lon="2.41769">
        <ele>135.8</ele>
        <time>2015-12-16T14:54:24.701Z</time>
      </trkpt>
      <trkpt lat="43.18296" lon="2.41758">
        <ele>136.6</ele>
        <time>2015-12-16T14:54:30.730Z</time>
      </trkpt>
      <trkpt lat="43.18295" lon="2.41756">
        <ele>136.5</ele>
        <time>2015-12-16T14:54:31.696Z</time>
      </trkpt>
      <trkpt lat="43.18293" lon="2.41746">
        <ele>136.9</ele>
        <time>2015-12-16T14:54:36.722Z</time>
      </trkpt>
      <trkpt lat="43.18292" lon="2.41744">
        <ele>136.9</ele>
        <time>2015-12-16T14:54:37.698Z</time>
      </trkpt>
      <trkpt lat="43.18291" lon="2.41733">
        <ele>136.3</ele>
        <time>2015-12-16T14:54:45.735Z</time>
      </trkpt>
      <trkpt lat="43.18291" lon="2.41731">
        <ele>136.1</ele>
        <time>2015-12-16T14:54:46.705Z</time>
      </trkpt>
      <trkpt lat="43.18295" lon="2.4172">
        <ele>136.2</ele>
        <time>2015-12-16T14:54:52.719Z</time>
      </trkpt>
      <trkpt lat="43.18296" lon="2.41719">
        <ele>136.5</ele>
        <time>2015-12-16T14:54:53.715Z</time>
      </trkpt>
      <trkpt lat="43.18302" lon="2.41709">
        <ele>137</ele>
        <time>2015-12-16T14:54:59.887Z</time>
      </trkpt>
      <trkpt lat="43.18303" lon="2.41708">
        <ele>137</ele>
        <time>2015-12-16T14:55:00.692Z</time>
      </trkpt>
      <trkpt lat="43.18305" lon="2.41696">
        <ele>137.6</ele>
        <time>2015-12-16T14:55:09.716Z</time>
      </trkpt>
      <trkpt lat="43.18306" lon="2.41696">
        <ele>137.6</ele>
        <time>2015-12-16T14:55:10.690Z</time>
      </trkpt>
      <trkpt lat="43.18308" lon="2.41685">
        <ele>137.3</ele>
        <time>2015-12-16T14:55:15.746Z</time>
      </trkpt>
      <trkpt lat="43.18309" lon="2.41684">
        <ele>137.2</ele>
        <time>2015-12-16T14:55:16.693Z</time>
      </trkpt>
      <trkpt lat="43.18312" lon="2.41674">
        <ele>135.8</ele>
        <time>2015-12-16T14:55:47.736Z</time>
      </trkpt>
      <trkpt lat="43.18314" lon="2.41668">
        <ele>136.1</ele>
        <time>2015-12-16T14:55:48.697Z</time>
      </trkpt>
      <trkpt lat="43.18318" lon="2.41659">
        <ele>136.1</ele>
        <time>2015-12-16T14:55:53.739Z</time>
      </trkpt>
      <trkpt lat="43.18318" lon="2.41657">
        <ele>136</ele>
        <time>2015-12-16T14:55:54.801Z</time>
      </trkpt>
      <trkpt lat="43.18322" lon="2.41646">
        <ele>136.4</ele>
        <time>2015-12-16T14:56:01.764Z</time>
      </trkpt>
      <trkpt lat="43.18322" lon="2.41644">
        <ele>136.5</ele>
        <time>2015-12-16T14:56:02.721Z</time>
      </trkpt>
      <trkpt lat="43.18328" lon="2.41634">
        <ele>137.2</ele>
        <time>2015-12-16T14:56:08.735Z</time>
      </trkpt>
      <trkpt lat="43.18328" lon="2.41633">
        <ele>137.3</ele>
        <time>2015-12-16T14:56:09.696Z</time>
      </trkpt>
      <trkpt lat="43.18332" lon="2.41623">
        <ele>139</ele>
        <time>2015-12-16T14:56:14.758Z</time>
      </trkpt>
      <trkpt lat="43.18332" lon="2.41621">
        <ele>139.3</ele>
        <time>2015-12-16T14:56:15.696Z</time>
      </trkpt>
      <trkpt lat="43.18336" lon="2.41611">
        <ele>140.9</ele>
        <time>2015-12-16T14:56:20.762Z</time>
      </trkpt>
      <trkpt lat="43.18336" lon="2.41608">
        <ele>141.3</ele>
        <time>2015-12-16T14:56:21.712Z</time>
      </trkpt>
      <trkpt lat="43.18339" lon="2.41598">
        <ele>144.1</ele>
        <time>2015-12-16T14:56:27.729Z</time>
      </trkpt>
      <trkpt lat="43.1834" lon="2.41596">
        <ele>144.5</ele>
        <time>2015-12-16T14:56:28.699Z</time>
      </trkpt>
      <trkpt lat="43.18341" lon="2.41585">
        <ele>147.6</ele>
        <time>2015-12-16T14:56:33.749Z</time>
      </trkpt>
      <trkpt lat="43.18342" lon="2.41583">
        <ele>148.1</ele>
        <time>2015-12-16T14:56:34.706Z</time>
      </trkpt>
      <trkpt lat="43.18344" lon="2.41572">
        <ele>150.7</ele>
        <time>2015-12-16T14:56:39.727Z</time>
      </trkpt>
      <trkpt lat="43.18344" lon="2.4157">
        <ele>151.1</ele>
        <time>2015-12-16T14:56:40.692Z</time>
      </trkpt>
      <trkpt lat="43.18346" lon="2.4156">
        <ele>153.8</ele>
        <time>2015-12-16T14:56:47.083Z</time>
      </trkpt>
      <trkpt lat="43.18347" lon="2.41559">
        <ele>154.1</ele>
        <time>2015-12-16T14:56:47.694Z</time>
      </trkpt>
      <trkpt lat="43.18349" lon="2.41548">
        <ele>156.8</ele>
        <time>2015-12-16T14:56:55.755Z</time>
      </trkpt>
      <trkpt lat="43.18349" lon="2.41546">
        <ele>157.1</ele>
        <time>2015-12-16T14:56:56.688Z</time>
      </trkpt>
      <trkpt lat="43.18351" lon="2.41535">
        <ele>157.8</ele>
        <time>2015-12-16T14:57:02.726Z</time>
      </trkpt>
      <trkpt lat="43.1835" lon="2.41533">
        <ele>158.5</ele>
        <time>2015-12-16T14:57:03.702Z</time>
      </trkpt>
      <trkpt lat="43.18344" lon="2.41525">
        <ele>160.9</ele>
        <time>2015-12-16T14:57:09.733Z</time>
      </trkpt>
      <trkpt lat="43.18344" lon="2.41524">
        <ele>161.1</ele>
        <time>2015-12-16T14:57:10.700Z</time>
      </trkpt>
      <trkpt lat="43.18338" lon="2.41516">
        <ele>162.9</ele>
        <time>2015-12-16T14:57:17.738Z</time>
      </trkpt>
      <trkpt lat="43.18337" lon="2.41515">
        <ele>163</ele>
        <time>2015-12-16T14:57:18.702Z</time>
      </trkpt>
      <trkpt lat="43.18333" lon="2.41506">
        <ele>165.3</ele>
        <time>2015-12-16T14:57:24.751Z</time>
      </trkpt>
      <trkpt lat="43.18332" lon="2.41504">
        <ele>165.6</ele>
        <time>2015-12-16T14:57:25.714Z</time>
      </trkpt>
      <trkpt lat="43.18326" lon="2.41497">
        <ele>166.2</ele>
        <time>2015-12-16T14:57:31.765Z</time>
      </trkpt>
      <trkpt lat="43.18325" lon="2.41496">
        <ele>166.3</ele>
        <time>2015-12-16T14:57:32.702Z</time>
      </trkpt>
      <trkpt lat="43.18319" lon="2.41488">
        <ele>165.7</ele>
        <time>2015-12-16T14:57:38.739Z</time>
      </trkpt>
      <trkpt lat="43.18318" lon="2.41487">
        <ele>165.8</ele>
        <time>2015-12-16T14:57:39.700Z</time>
      </trkpt>
      <trkpt lat="43.18313" lon="2.41477">
        <ele>167.4</ele>
        <time>2015-12-16T14:57:46.740Z</time>
      </trkpt>
      <trkpt lat="43.18313" lon="2.41475">
        <ele>167.7</ele>
        <time>2015-12-16T14:57:47.699Z</time>
      </trkpt>
      <trkpt lat="43.18307" lon="2.41466">
        <ele>168.7</ele>
        <time>2015-12-16T14:57:54.756Z</time>
      </trkpt>
      <trkpt lat="43.18307" lon="2.41464">
        <ele>168.9</ele>
        <time>2015-12-16T14:57:55.702Z</time>
      </trkpt>
      <trkpt lat="43.18301" lon="2.41456">
        <ele>169.5</ele>
        <time>2015-12-16T14:58:01.743Z</time>
      </trkpt>
      <trkpt lat="43.183" lon="2.41454">
        <ele>169.5</ele>
        <time>2015-12-16T14:58:02.701Z</time>
      </trkpt>
      <trkpt lat="43.18293" lon="2.41446">
        <ele>168.9</ele>
        <time>2015-12-16T14:58:10.730Z</time>
      </trkpt>
      <trkpt lat="43.18292" lon="2.41446">
        <ele>168.8</ele>
        <time>2015-12-16T14:58:11.696Z</time>
      </trkpt>
      <trkpt lat="43.1829" lon="2.41447">
        <ele>167.7</ele>
        <time>2015-12-16T14:58:26.979Z</time>
      </trkpt>
    </trkseg>
  </trk>
</gpx>